<?xml version="1.0" encoding="UTF-8" standalone="no" ?>
<gpx xmlns="http://www.topografix.com/GPX/1/1" xmlns:xsi="http://www.w3.org/2001/XMLSchema-instance" xsi:schemaLocation="http://www.topografix.com/GPX/1/1 http://www.topografix.com/GPX/1/1/gpx.xsd" version="1.1" creator="VisuGPX - https://www.visugpx.com">
  <metadata>
    <name>Raquettes - A la limite des Grands Plateaux du Vercors</name>
    <desc><![CDATA[Encore plein les rétines avec ce Vercors. Arrêt à la limite des grands plateaux car j'avais ma chienne !]]></desc>
  </metadata>
  <trk>
    <name><![CDATA[23-DEC-20 11:08:03]]></name>
    <trkseg>
      <trkpt lat="44.84238" lon="5.42363">
        <ele>1396.93</ele>
        <time>2020-12-23T07:41:05Z</time>
      </trkpt>
      <trkpt lat="44.84238" lon="5.42363">
        <ele>1396.93</ele>
        <time>2020-12-23T07:41:06Z</time>
      </trkpt>
      <trkpt lat="44.84238" lon="5.42363">
        <ele>1396.93</ele>
        <time>2020-12-23T07:41:09Z</time>
      </trkpt>
      <trkpt lat="44.84238" lon="5.42363">
        <ele>1395.49</ele>
        <time>2020-12-23T07:41:11Z</time>
      </trkpt>
      <trkpt lat="44.84238" lon="5.42363">
        <ele>1396.93</ele>
        <time>2020-12-23T07:41:13Z</time>
      </trkpt>
      <trkpt lat="44.84238" lon="5.42363">
        <ele>1395.97</ele>
        <time>2020-12-23T07:41:15Z</time>
      </trkpt>
      <trkpt lat="44.8424" lon="5.42369">
        <ele>1396.45</ele>
        <time>2020-12-23T07:41:28Z</time>
      </trkpt>
      <trkpt lat="44.84241" lon="5.4237">
        <ele>1396.45</ele>
        <time>2020-12-23T07:41:29Z</time>
      </trkpt>
      <trkpt lat="44.84243" lon="5.424">
        <ele>1396.45</ele>
        <time>2020-12-23T07:41:45Z</time>
      </trkpt>
      <trkpt lat="44.84245" lon="5.42412">
        <ele>1396.45</ele>
        <time>2020-12-23T07:41:51Z</time>
      </trkpt>
      <trkpt lat="44.84245" lon="5.42418">
        <ele>1396.93</ele>
        <time>2020-12-23T07:41:55Z</time>
      </trkpt>
      <trkpt lat="44.84244" lon="5.4242">
        <ele>1397.41</ele>
        <time>2020-12-23T07:41:57Z</time>
      </trkpt>
      <trkpt lat="44.84238" lon="5.42439">
        <ele>1396.93</ele>
        <time>2020-12-23T07:42:07Z</time>
      </trkpt>
      <trkpt lat="44.84238" lon="5.42451">
        <ele>1396.45</ele>
        <time>2020-12-23T07:42:13Z</time>
      </trkpt>
      <trkpt lat="44.84243" lon="5.42465">
        <ele>1395.97</ele>
        <time>2020-12-23T07:42:22Z</time>
      </trkpt>
      <trkpt lat="44.84243" lon="5.42483">
        <ele>1395.49</ele>
        <time>2020-12-23T07:42:30Z</time>
      </trkpt>
      <trkpt lat="44.84241" lon="5.42493">
        <ele>1395.49</ele>
        <time>2020-12-23T07:42:34Z</time>
      </trkpt>
      <trkpt lat="44.84245" lon="5.42506">
        <ele>1395.97</ele>
        <time>2020-12-23T07:42:44Z</time>
      </trkpt>
      <trkpt lat="44.84247" lon="5.42512">
        <ele>1397.41</ele>
        <time>2020-12-23T07:42:49Z</time>
      </trkpt>
      <trkpt lat="44.84252" lon="5.42519">
        <ele>1399.34</ele>
        <time>2020-12-23T07:42:55Z</time>
      </trkpt>
      <trkpt lat="44.84252" lon="5.42526">
        <ele>1400.3</ele>
        <time>2020-12-23T07:43:00Z</time>
      </trkpt>
      <trkpt lat="44.84253" lon="5.42533">
        <ele>1401.26</ele>
        <time>2020-12-23T07:43:06Z</time>
      </trkpt>
      <trkpt lat="44.84254" lon="5.4254">
        <ele>1402.22</ele>
        <time>2020-12-23T07:43:10Z</time>
      </trkpt>
      <trkpt lat="44.84257" lon="5.42548">
        <ele>1403.18</ele>
        <time>2020-12-23T07:43:16Z</time>
      </trkpt>
      <trkpt lat="44.84256" lon="5.4256">
        <ele>1404.62</ele>
        <time>2020-12-23T07:43:24Z</time>
      </trkpt>
      <trkpt lat="44.84256" lon="5.4258">
        <ele>1406.55</ele>
        <time>2020-12-23T07:43:37Z</time>
      </trkpt>
      <trkpt lat="44.84257" lon="5.4259">
        <ele>1407.99</ele>
        <time>2020-12-23T07:43:53Z</time>
      </trkpt>
      <trkpt lat="44.84259" lon="5.42587">
        <ele>1407.03</ele>
        <time>2020-12-23T07:44:01Z</time>
      </trkpt>
      <trkpt lat="44.84259" lon="5.42587">
        <ele>1396.45</ele>
        <time>2020-12-23T07:44:09Z</time>
      </trkpt>
      <trkpt lat="44.84259" lon="5.42586">
        <ele>1406.55</ele>
        <time>2020-12-23T07:44:10Z</time>
      </trkpt>
      <trkpt lat="44.84259" lon="5.42586">
        <ele>1412.79</ele>
        <time>2020-12-23T07:44:11Z</time>
      </trkpt>
      <trkpt lat="44.84259" lon="5.42586">
        <ele>1402.7</ele>
        <time>2020-12-23T07:44:12Z</time>
      </trkpt>
      <trkpt lat="44.84259" lon="5.42586">
        <ele>1410.39</ele>
        <time>2020-12-23T07:44:13Z</time>
      </trkpt>
      <trkpt lat="44.84259" lon="5.42586">
        <ele>1406.55</ele>
        <time>2020-12-23T07:44:14Z</time>
      </trkpt>
      <trkpt lat="44.84259" lon="5.42585">
        <ele>1406.07</ele>
        <time>2020-12-23T07:44:19Z</time>
      </trkpt>
      <trkpt lat="44.84257" lon="5.42575">
        <ele>1405.58</ele>
        <time>2020-12-23T07:44:28Z</time>
      </trkpt>
      <trkpt lat="44.84249" lon="5.42564">
        <ele>1406.07</ele>
        <time>2020-12-23T07:44:41Z</time>
      </trkpt>
      <trkpt lat="44.84232" lon="5.42554">
        <ele>1407.99</ele>
        <time>2020-12-23T07:44:55Z</time>
      </trkpt>
      <trkpt lat="44.84227" lon="5.42555">
        <ele>1409.91</ele>
        <time>2020-12-23T07:45:01Z</time>
      </trkpt>
      <trkpt lat="44.84215" lon="5.42565">
        <ele>1412.31</ele>
        <time>2020-12-23T07:45:14Z</time>
      </trkpt>
      <trkpt lat="44.8421" lon="5.42577">
        <ele>1415.68</ele>
        <time>2020-12-23T07:45:24Z</time>
      </trkpt>
      <trkpt lat="44.84199" lon="5.42603">
        <ele>1417.6</ele>
        <time>2020-12-23T07:45:44Z</time>
      </trkpt>
      <trkpt lat="44.84194" lon="5.42614">
        <ele>1418.56</ele>
        <time>2020-12-23T07:45:51Z</time>
      </trkpt>
      <trkpt lat="44.84185" lon="5.42628">
        <ele>1421.45</ele>
        <time>2020-12-23T07:46:08Z</time>
      </trkpt>
      <trkpt lat="44.84173" lon="5.42633">
        <ele>1423.85</ele>
        <time>2020-12-23T07:46:22Z</time>
      </trkpt>
      <trkpt lat="44.84157" lon="5.42633">
        <ele>1426.73</ele>
        <time>2020-12-23T07:46:38Z</time>
      </trkpt>
      <trkpt lat="44.84148" lon="5.42633">
        <ele>1428.18</ele>
        <time>2020-12-23T07:46:48Z</time>
      </trkpt>
      <trkpt lat="44.84136" lon="5.42644">
        <ele>1429.62</ele>
        <time>2020-12-23T07:47:03Z</time>
      </trkpt>
      <trkpt lat="44.84119" lon="5.42656">
        <ele>1432.02</ele>
        <time>2020-12-23T07:47:20Z</time>
      </trkpt>
      <trkpt lat="44.84107" lon="5.42667">
        <ele>1432.98</ele>
        <time>2020-12-23T07:47:31Z</time>
      </trkpt>
      <trkpt lat="44.84099" lon="5.42678">
        <ele>1434.42</ele>
        <time>2020-12-23T07:47:40Z</time>
      </trkpt>
      <trkpt lat="44.84089" lon="5.42697">
        <ele>1436.83</ele>
        <time>2020-12-23T07:47:56Z</time>
      </trkpt>
      <trkpt lat="44.84088" lon="5.42698">
        <ele>1437.31</ele>
        <time>2020-12-23T07:47:57Z</time>
      </trkpt>
      <trkpt lat="44.84082" lon="5.42706">
        <ele>1438.75</ele>
        <time>2020-12-23T07:48:05Z</time>
      </trkpt>
      <trkpt lat="44.84069" lon="5.42718">
        <ele>1441.63</ele>
        <time>2020-12-23T07:48:21Z</time>
      </trkpt>
      <trkpt lat="44.84058" lon="5.42722">
        <ele>1444.52</ele>
        <time>2020-12-23T07:48:37Z</time>
      </trkpt>
      <trkpt lat="44.84044" lon="5.42728">
        <ele>1446.44</ele>
        <time>2020-12-23T07:48:50Z</time>
      </trkpt>
      <trkpt lat="44.84033" lon="5.42739">
        <ele>1447.88</ele>
        <time>2020-12-23T07:49:03Z</time>
      </trkpt>
      <trkpt lat="44.8402" lon="5.42753">
        <ele>1448.36</ele>
        <time>2020-12-23T07:49:16Z</time>
      </trkpt>
      <trkpt lat="44.84009" lon="5.42767">
        <ele>1450.77</ele>
        <time>2020-12-23T07:49:31Z</time>
      </trkpt>
      <trkpt lat="44.84" lon="5.42786">
        <ele>1452.21</ele>
        <time>2020-12-23T07:49:49Z</time>
      </trkpt>
      <trkpt lat="44.83993" lon="5.42801">
        <ele>1455.09</ele>
        <time>2020-12-23T07:50:01Z</time>
      </trkpt>
      <trkpt lat="44.83979" lon="5.42802">
        <ele>1458.94</ele>
        <time>2020-12-23T07:50:19Z</time>
      </trkpt>
      <trkpt lat="44.83964" lon="5.42805">
        <ele>1461.34</ele>
        <time>2020-12-23T07:50:35Z</time>
      </trkpt>
      <trkpt lat="44.83955" lon="5.42808">
        <ele>1462.78</ele>
        <time>2020-12-23T07:50:44Z</time>
      </trkpt>
      <trkpt lat="44.83939" lon="5.42813">
        <ele>1464.23</ele>
        <time>2020-12-23T07:50:59Z</time>
      </trkpt>
      <trkpt lat="44.83931" lon="5.42816">
        <ele>1466.15</ele>
        <time>2020-12-23T07:51:13Z</time>
      </trkpt>
      <trkpt lat="44.83907" lon="5.42824">
        <ele>1468.07</ele>
        <time>2020-12-23T07:51:31Z</time>
      </trkpt>
      <trkpt lat="44.83897" lon="5.42824">
        <ele>1469.51</ele>
        <time>2020-12-23T07:51:42Z</time>
      </trkpt>
      <trkpt lat="44.8388" lon="5.4283">
        <ele>1472.4</ele>
        <time>2020-12-23T07:51:58Z</time>
      </trkpt>
      <trkpt lat="44.83877" lon="5.42831">
        <ele>1473.36</ele>
        <time>2020-12-23T07:52:02Z</time>
      </trkpt>
      <trkpt lat="44.83873" lon="5.42833">
        <ele>1472.88</ele>
        <time>2020-12-23T07:52:05Z</time>
      </trkpt>
      <trkpt lat="44.83868" lon="5.42836">
        <ele>1473.36</ele>
        <time>2020-12-23T07:52:20Z</time>
      </trkpt>
      <trkpt lat="44.83868" lon="5.42836">
        <ele>1474.32</ele>
        <time>2020-12-23T07:52:38Z</time>
      </trkpt>
      <trkpt lat="44.83868" lon="5.42837">
        <ele>1473.84</ele>
        <time>2020-12-23T07:52:54Z</time>
      </trkpt>
      <trkpt lat="44.83868" lon="5.42837">
        <ele>1473.84</ele>
        <time>2020-12-23T07:53:25Z</time>
      </trkpt>
      <trkpt lat="44.83864" lon="5.42837">
        <ele>1475.28</ele>
        <time>2020-12-23T07:53:37Z</time>
      </trkpt>
      <trkpt lat="44.83853" lon="5.42838">
        <ele>1475.76</ele>
        <time>2020-12-23T07:53:45Z</time>
      </trkpt>
      <trkpt lat="44.83845" lon="5.42838">
        <ele>1476.72</ele>
        <time>2020-12-23T07:53:51Z</time>
      </trkpt>
      <trkpt lat="44.83828" lon="5.42844">
        <ele>1477.2</ele>
        <time>2020-12-23T07:54:06Z</time>
      </trkpt>
      <trkpt lat="44.83811" lon="5.42856">
        <ele>1478.65</ele>
        <time>2020-12-23T07:54:21Z</time>
      </trkpt>
      <trkpt lat="44.83794" lon="5.42866">
        <ele>1477.2</ele>
        <time>2020-12-23T07:54:35Z</time>
      </trkpt>
      <trkpt lat="44.83776" lon="5.42871">
        <ele>1477.68</ele>
        <time>2020-12-23T07:54:51Z</time>
      </trkpt>
      <trkpt lat="44.83764" lon="5.42878">
        <ele>1478.16</ele>
        <time>2020-12-23T07:55:00Z</time>
      </trkpt>
      <trkpt lat="44.83751" lon="5.42884">
        <ele>1477.68</ele>
        <time>2020-12-23T07:55:12Z</time>
      </trkpt>
      <trkpt lat="44.83747" lon="5.42889">
        <ele>1477.2</ele>
        <time>2020-12-23T07:55:16Z</time>
      </trkpt>
      <trkpt lat="44.83737" lon="5.42925">
        <ele>1477.68</ele>
        <time>2020-12-23T07:55:31Z</time>
      </trkpt>
      <trkpt lat="44.83741" lon="5.4295">
        <ele>1479.61</ele>
        <time>2020-12-23T07:55:47Z</time>
      </trkpt>
      <trkpt lat="44.83744" lon="5.42973">
        <ele>1480.57</ele>
        <time>2020-12-23T07:56:01Z</time>
      </trkpt>
      <trkpt lat="44.83748" lon="5.4299">
        <ele>1482.01</ele>
        <time>2020-12-23T07:56:13Z</time>
      </trkpt>
      <trkpt lat="44.83748" lon="5.42991">
        <ele>1482.49</ele>
        <time>2020-12-23T07:56:14Z</time>
      </trkpt>
      <trkpt lat="44.8375" lon="5.43011">
        <ele>1484.89</ele>
        <time>2020-12-23T07:56:30Z</time>
      </trkpt>
      <trkpt lat="44.8375" lon="5.43027">
        <ele>1487.78</ele>
        <time>2020-12-23T07:56:41Z</time>
      </trkpt>
      <trkpt lat="44.83752" lon="5.43031">
        <ele>1487.3</ele>
        <time>2020-12-23T07:56:44Z</time>
      </trkpt>
      <trkpt lat="44.8375" lon="5.4304">
        <ele>1487.78</ele>
        <time>2020-12-23T07:56:50Z</time>
      </trkpt>
      <trkpt lat="44.83745" lon="5.43057">
        <ele>1488.74</ele>
        <time>2020-12-23T07:57:04Z</time>
      </trkpt>
      <trkpt lat="44.83739" lon="5.43061">
        <ele>1488.74</ele>
        <time>2020-12-23T07:57:09Z</time>
      </trkpt>
      <trkpt lat="44.8373" lon="5.43071">
        <ele>1492.1</ele>
        <time>2020-12-23T07:57:21Z</time>
      </trkpt>
      <trkpt lat="44.83729" lon="5.43073">
        <ele>1491.62</ele>
        <time>2020-12-23T07:57:22Z</time>
      </trkpt>
      <trkpt lat="44.83722" lon="5.43084">
        <ele>1491.14</ele>
        <time>2020-12-23T07:57:31Z</time>
      </trkpt>
      <trkpt lat="44.83719" lon="5.43091">
        <ele>1492.1</ele>
        <time>2020-12-23T07:57:36Z</time>
      </trkpt>
      <trkpt lat="44.83716" lon="5.4311">
        <ele>1493.06</ele>
        <time>2020-12-23T07:57:48Z</time>
      </trkpt>
      <trkpt lat="44.83714" lon="5.43113">
        <ele>1493.55</ele>
        <time>2020-12-23T07:57:51Z</time>
      </trkpt>
      <trkpt lat="44.83711" lon="5.43116">
        <ele>1493.55</ele>
        <time>2020-12-23T07:57:54Z</time>
      </trkpt>
      <trkpt lat="44.83709" lon="5.43121">
        <ele>1494.03</ele>
        <time>2020-12-23T07:57:58Z</time>
      </trkpt>
      <trkpt lat="44.83705" lon="5.43138">
        <ele>1494.99</ele>
        <time>2020-12-23T07:58:09Z</time>
      </trkpt>
      <trkpt lat="44.83704" lon="5.43144">
        <ele>1495.95</ele>
        <time>2020-12-23T07:58:14Z</time>
      </trkpt>
      <trkpt lat="44.83701" lon="5.43151">
        <ele>1495.95</ele>
        <time>2020-12-23T07:58:19Z</time>
      </trkpt>
      <trkpt lat="44.83698" lon="5.43157">
        <ele>1496.43</ele>
        <time>2020-12-23T07:58:25Z</time>
      </trkpt>
      <trkpt lat="44.83695" lon="5.4316">
        <ele>1496.91</ele>
        <time>2020-12-23T07:58:29Z</time>
      </trkpt>
      <trkpt lat="44.8369" lon="5.43164">
        <ele>1497.87</ele>
        <time>2020-12-23T07:58:34Z</time>
      </trkpt>
      <trkpt lat="44.8368" lon="5.43173">
        <ele>1498.83</ele>
        <time>2020-12-23T07:58:47Z</time>
      </trkpt>
      <trkpt lat="44.8368" lon="5.43174">
        <ele>1498.83</ele>
        <time>2020-12-23T07:58:48Z</time>
      </trkpt>
      <trkpt lat="44.83669" lon="5.43183">
        <ele>1500.27</ele>
        <time>2020-12-23T07:59:03Z</time>
      </trkpt>
      <trkpt lat="44.83665" lon="5.43187">
        <ele>1501.24</ele>
        <time>2020-12-23T07:59:08Z</time>
      </trkpt>
      <trkpt lat="44.83651" lon="5.43194">
        <ele>1502.2</ele>
        <time>2020-12-23T07:59:23Z</time>
      </trkpt>
      <trkpt lat="44.83636" lon="5.43198">
        <ele>1503.64</ele>
        <time>2020-12-23T07:59:39Z</time>
      </trkpt>
      <trkpt lat="44.83621" lon="5.43192">
        <ele>1505.56</ele>
        <time>2020-12-23T07:59:55Z</time>
      </trkpt>
      <trkpt lat="44.836" lon="5.43192">
        <ele>1507</ele>
        <time>2020-12-23T08:00:10Z</time>
      </trkpt>
      <trkpt lat="44.83596" lon="5.43193">
        <ele>1507</ele>
        <time>2020-12-23T08:00:13Z</time>
      </trkpt>
      <trkpt lat="44.83585" lon="5.43199">
        <ele>1508.45</ele>
        <time>2020-12-23T08:00:23Z</time>
      </trkpt>
      <trkpt lat="44.8358" lon="5.43202">
        <ele>1508.45</ele>
        <time>2020-12-23T08:00:27Z</time>
      </trkpt>
      <trkpt lat="44.83564" lon="5.43219">
        <ele>1510.37</ele>
        <time>2020-12-23T08:00:44Z</time>
      </trkpt>
      <trkpt lat="44.83558" lon="5.43222">
        <ele>1511.33</ele>
        <time>2020-12-23T08:00:52Z</time>
      </trkpt>
      <trkpt lat="44.83555" lon="5.43222">
        <ele>1511.33</ele>
        <time>2020-12-23T08:00:55Z</time>
      </trkpt>
      <trkpt lat="44.83536" lon="5.43234">
        <ele>1513.25</ele>
        <time>2020-12-23T08:01:12Z</time>
      </trkpt>
      <trkpt lat="44.83528" lon="5.43233">
        <ele>1514.69</ele>
        <time>2020-12-23T08:01:25Z</time>
      </trkpt>
      <trkpt lat="44.83508" lon="5.43234">
        <ele>1516.62</ele>
        <time>2020-12-23T08:01:41Z</time>
      </trkpt>
      <trkpt lat="44.83499" lon="5.43233">
        <ele>1517.58</ele>
        <time>2020-12-23T08:01:54Z</time>
      </trkpt>
      <trkpt lat="44.83479" lon="5.43233">
        <ele>1519.5</ele>
        <time>2020-12-23T08:02:12Z</time>
      </trkpt>
      <trkpt lat="44.83462" lon="5.43225">
        <ele>1520.94</ele>
        <time>2020-12-23T08:02:29Z</time>
      </trkpt>
      <trkpt lat="44.83451" lon="5.43228">
        <ele>1523.83</ele>
        <time>2020-12-23T08:02:47Z</time>
      </trkpt>
      <trkpt lat="44.83437" lon="5.4324">
        <ele>1524.79</ele>
        <time>2020-12-23T08:02:57Z</time>
      </trkpt>
      <trkpt lat="44.83431" lon="5.43253">
        <ele>1525.75</ele>
        <time>2020-12-23T08:03:07Z</time>
      </trkpt>
      <trkpt lat="44.83429" lon="5.4326">
        <ele>1526.71</ele>
        <time>2020-12-23T08:03:10Z</time>
      </trkpt>
      <trkpt lat="44.83426" lon="5.43274">
        <ele>1529.11</ele>
        <time>2020-12-23T08:03:17Z</time>
      </trkpt>
      <trkpt lat="44.83424" lon="5.43281">
        <ele>1530.08</ele>
        <time>2020-12-23T08:03:22Z</time>
      </trkpt>
      <trkpt lat="44.83423" lon="5.43292">
        <ele>1531.52</ele>
        <time>2020-12-23T08:03:30Z</time>
      </trkpt>
      <trkpt lat="44.8342" lon="5.43296">
        <ele>1532.48</ele>
        <time>2020-12-23T08:03:35Z</time>
      </trkpt>
      <trkpt lat="44.83417" lon="5.433">
        <ele>1532.48</ele>
        <time>2020-12-23T08:03:52Z</time>
      </trkpt>
      <trkpt lat="44.83417" lon="5.433">
        <ele>1532.48</ele>
        <time>2020-12-23T08:04:30Z</time>
      </trkpt>
      <trkpt lat="44.83418" lon="5.43306">
        <ele>1532.96</ele>
        <time>2020-12-23T08:04:37Z</time>
      </trkpt>
      <trkpt lat="44.83417" lon="5.43311">
        <ele>1534.4</ele>
        <time>2020-12-23T08:04:41Z</time>
      </trkpt>
      <trkpt lat="44.83408" lon="5.4333">
        <ele>1536.32</ele>
        <time>2020-12-23T08:04:54Z</time>
      </trkpt>
      <trkpt lat="44.83408" lon="5.43331">
        <ele>1536.8</ele>
        <time>2020-12-23T08:04:55Z</time>
      </trkpt>
      <trkpt lat="44.83406" lon="5.4334">
        <ele>1538.73</ele>
        <time>2020-12-23T08:05:02Z</time>
      </trkpt>
      <trkpt lat="44.83401" lon="5.4336">
        <ele>1541.13</ele>
        <time>2020-12-23T08:05:15Z</time>
      </trkpt>
      <trkpt lat="44.83394" lon="5.43378">
        <ele>1542.57</ele>
        <time>2020-12-23T08:05:27Z</time>
      </trkpt>
      <trkpt lat="44.83391" lon="5.43395">
        <ele>1544.98</ele>
        <time>2020-12-23T08:05:39Z</time>
      </trkpt>
      <trkpt lat="44.83383" lon="5.43413">
        <ele>1546.9</ele>
        <time>2020-12-23T08:05:51Z</time>
      </trkpt>
      <trkpt lat="44.83383" lon="5.43414">
        <ele>1547.38</ele>
        <time>2020-12-23T08:05:53Z</time>
      </trkpt>
      <trkpt lat="44.83381" lon="5.43425">
        <ele>1549.3</ele>
        <time>2020-12-23T08:06:00Z</time>
      </trkpt>
      <trkpt lat="44.83377" lon="5.43443">
        <ele>1551.71</ele>
        <time>2020-12-23T08:06:13Z</time>
      </trkpt>
      <trkpt lat="44.83376" lon="5.43446">
        <ele>1552.67</ele>
        <time>2020-12-23T08:06:16Z</time>
      </trkpt>
      <trkpt lat="44.83374" lon="5.43457">
        <ele>1553.63</ele>
        <time>2020-12-23T08:06:23Z</time>
      </trkpt>
      <trkpt lat="44.83373" lon="5.43466">
        <ele>1554.59</ele>
        <time>2020-12-23T08:06:28Z</time>
      </trkpt>
      <trkpt lat="44.83374" lon="5.43473">
        <ele>1554.59</ele>
        <time>2020-12-23T08:06:32Z</time>
      </trkpt>
      <trkpt lat="44.83371" lon="5.43489">
        <ele>1556.99</ele>
        <time>2020-12-23T08:06:44Z</time>
      </trkpt>
      <trkpt lat="44.8337" lon="5.43497">
        <ele>1557.47</ele>
        <time>2020-12-23T08:06:49Z</time>
      </trkpt>
      <trkpt lat="44.8337" lon="5.4351">
        <ele>1560.36</ele>
        <time>2020-12-23T08:07:00Z</time>
      </trkpt>
      <trkpt lat="44.83366" lon="5.43518">
        <ele>1562.28</ele>
        <time>2020-12-23T08:07:08Z</time>
      </trkpt>
      <trkpt lat="44.83365" lon="5.43523">
        <ele>1563.24</ele>
        <time>2020-12-23T08:07:11Z</time>
      </trkpt>
      <trkpt lat="44.83365" lon="5.43526">
        <ele>1563.24</ele>
        <time>2020-12-23T08:07:13Z</time>
      </trkpt>
      <trkpt lat="44.83365" lon="5.43546">
        <ele>1565.16</ele>
        <time>2020-12-23T08:07:25Z</time>
      </trkpt>
      <trkpt lat="44.83364" lon="5.43569">
        <ele>1566.61</ele>
        <time>2020-12-23T08:07:38Z</time>
      </trkpt>
      <trkpt lat="44.83371" lon="5.43585">
        <ele>1566.12</ele>
        <time>2020-12-23T08:07:50Z</time>
      </trkpt>
      <trkpt lat="44.83373" lon="5.43589">
        <ele>1566.12</ele>
        <time>2020-12-23T08:07:53Z</time>
      </trkpt>
      <trkpt lat="44.83377" lon="5.43596">
        <ele>1565.64</ele>
        <time>2020-12-23T08:07:58Z</time>
      </trkpt>
      <trkpt lat="44.83395" lon="5.43595">
        <ele>1567.09</ele>
        <time>2020-12-23T08:08:11Z</time>
      </trkpt>
      <trkpt lat="44.83405" lon="5.43592">
        <ele>1568.05</ele>
        <time>2020-12-23T08:08:18Z</time>
      </trkpt>
      <trkpt lat="44.8341" lon="5.43589">
        <ele>1569.01</ele>
        <time>2020-12-23T08:08:35Z</time>
      </trkpt>
      <trkpt lat="44.8341" lon="5.43589">
        <ele>1569.01</ele>
        <time>2020-12-23T08:09:02Z</time>
      </trkpt>
      <trkpt lat="44.83424" lon="5.43592">
        <ele>1569.49</ele>
        <time>2020-12-23T08:09:15Z</time>
      </trkpt>
      <trkpt lat="44.83425" lon="5.43602">
        <ele>1569.97</ele>
        <time>2020-12-23T08:09:22Z</time>
      </trkpt>
      <trkpt lat="44.83424" lon="5.43616">
        <ele>1573.33</ele>
        <time>2020-12-23T08:09:33Z</time>
      </trkpt>
      <trkpt lat="44.83423" lon="5.43622">
        <ele>1574.3</ele>
        <time>2020-12-23T08:09:39Z</time>
      </trkpt>
      <trkpt lat="44.83422" lon="5.43628">
        <ele>1575.74</ele>
        <time>2020-12-23T08:09:44Z</time>
      </trkpt>
      <trkpt lat="44.83421" lon="5.43635">
        <ele>1577.18</ele>
        <time>2020-12-23T08:09:50Z</time>
      </trkpt>
      <trkpt lat="44.8342" lon="5.43639">
        <ele>1578.14</ele>
        <time>2020-12-23T08:09:53Z</time>
      </trkpt>
      <trkpt lat="44.8342" lon="5.43644">
        <ele>1579.58</ele>
        <time>2020-12-23T08:09:58Z</time>
      </trkpt>
      <trkpt lat="44.83419" lon="5.43654">
        <ele>1580.54</ele>
        <time>2020-12-23T08:10:05Z</time>
      </trkpt>
      <trkpt lat="44.8342" lon="5.43664">
        <ele>1582.95</ele>
        <time>2020-12-23T08:10:15Z</time>
      </trkpt>
      <trkpt lat="44.83418" lon="5.43676">
        <ele>1585.35</ele>
        <time>2020-12-23T08:10:23Z</time>
      </trkpt>
      <trkpt lat="44.83418" lon="5.43681">
        <ele>1585.83</ele>
        <time>2020-12-23T08:10:28Z</time>
      </trkpt>
      <trkpt lat="44.83416" lon="5.43693">
        <ele>1588.24</ele>
        <time>2020-12-23T08:10:41Z</time>
      </trkpt>
      <trkpt lat="44.83413" lon="5.43701">
        <ele>1591.6</ele>
        <time>2020-12-23T08:10:50Z</time>
      </trkpt>
      <trkpt lat="44.83409" lon="5.43713">
        <ele>1594.96</ele>
        <time>2020-12-23T08:11:02Z</time>
      </trkpt>
      <trkpt lat="44.83408" lon="5.43714">
        <ele>1594.48</ele>
        <time>2020-12-23T08:11:03Z</time>
      </trkpt>
      <trkpt lat="44.83406" lon="5.43716">
        <ele>1595.45</ele>
        <time>2020-12-23T08:11:06Z</time>
      </trkpt>
      <trkpt lat="44.83403" lon="5.43719">
        <ele>1594.96</ele>
        <time>2020-12-23T08:11:11Z</time>
      </trkpt>
      <trkpt lat="44.83397" lon="5.43729">
        <ele>1596.89</ele>
        <time>2020-12-23T08:11:21Z</time>
      </trkpt>
      <trkpt lat="44.83393" lon="5.43733">
        <ele>1598.33</ele>
        <time>2020-12-23T08:11:33Z</time>
      </trkpt>
      <trkpt lat="44.83392" lon="5.43735">
        <ele>1599.29</ele>
        <time>2020-12-23T08:11:35Z</time>
      </trkpt>
      <trkpt lat="44.83389" lon="5.43738">
        <ele>1599.29</ele>
        <time>2020-12-23T08:11:39Z</time>
      </trkpt>
      <trkpt lat="44.83383" lon="5.43745">
        <ele>1602.17</ele>
        <time>2020-12-23T08:11:52Z</time>
      </trkpt>
      <trkpt lat="44.83375" lon="5.43756">
        <ele>1603.62</ele>
        <time>2020-12-23T08:12:05Z</time>
      </trkpt>
      <trkpt lat="44.83372" lon="5.43761">
        <ele>1604.1</ele>
        <time>2020-12-23T08:12:10Z</time>
      </trkpt>
      <trkpt lat="44.8337" lon="5.43766">
        <ele>1605.06</ele>
        <time>2020-12-23T08:12:14Z</time>
      </trkpt>
      <trkpt lat="44.83366" lon="5.43771">
        <ele>1606.02</ele>
        <time>2020-12-23T08:12:19Z</time>
      </trkpt>
      <trkpt lat="44.83364" lon="5.43777">
        <ele>1606.02</ele>
        <time>2020-12-23T08:12:24Z</time>
      </trkpt>
      <trkpt lat="44.83362" lon="5.4378">
        <ele>1606.5</ele>
        <time>2020-12-23T08:12:28Z</time>
      </trkpt>
      <trkpt lat="44.83363" lon="5.43784">
        <ele>1606.5</ele>
        <time>2020-12-23T08:12:31Z</time>
      </trkpt>
      <trkpt lat="44.83369" lon="5.43793">
        <ele>1608.42</ele>
        <time>2020-12-23T08:12:39Z</time>
      </trkpt>
      <trkpt lat="44.83378" lon="5.43811">
        <ele>1608.9</ele>
        <time>2020-12-23T08:12:51Z</time>
      </trkpt>
      <trkpt lat="44.83379" lon="5.43813">
        <ele>1608.9</ele>
        <time>2020-12-23T08:12:53Z</time>
      </trkpt>
      <trkpt lat="44.83379" lon="5.43819">
        <ele>1609.38</ele>
        <time>2020-12-23T08:12:56Z</time>
      </trkpt>
      <trkpt lat="44.83382" lon="5.43824">
        <ele>1610.35</ele>
        <time>2020-12-23T08:13:09Z</time>
      </trkpt>
      <trkpt lat="44.83382" lon="5.43824">
        <ele>1606.98</ele>
        <time>2020-12-23T08:13:28Z</time>
      </trkpt>
      <trkpt lat="44.83382" lon="5.43824">
        <ele>1612.27</ele>
        <time>2020-12-23T08:13:29Z</time>
      </trkpt>
      <trkpt lat="44.83382" lon="5.43824">
        <ele>1610.35</ele>
        <time>2020-12-23T08:13:30Z</time>
      </trkpt>
      <trkpt lat="44.83383" lon="5.43824">
        <ele>1610.35</ele>
        <time>2020-12-23T08:13:51Z</time>
      </trkpt>
      <trkpt lat="44.83382" lon="5.43826">
        <ele>1610.35</ele>
        <time>2020-12-23T08:14:15Z</time>
      </trkpt>
      <trkpt lat="44.83384" lon="5.43833">
        <ele>1610.83</ele>
        <time>2020-12-23T08:14:21Z</time>
      </trkpt>
      <trkpt lat="44.83386" lon="5.4384">
        <ele>1611.79</ele>
        <time>2020-12-23T08:14:25Z</time>
      </trkpt>
      <trkpt lat="44.83389" lon="5.43845">
        <ele>1612.27</ele>
        <time>2020-12-23T08:14:29Z</time>
      </trkpt>
      <trkpt lat="44.83391" lon="5.43859">
        <ele>1613.23</ele>
        <time>2020-12-23T08:14:39Z</time>
      </trkpt>
      <trkpt lat="44.83393" lon="5.43865">
        <ele>1614.67</ele>
        <time>2020-12-23T08:14:44Z</time>
      </trkpt>
      <trkpt lat="44.83396" lon="5.43872">
        <ele>1616.59</ele>
        <time>2020-12-23T08:14:57Z</time>
      </trkpt>
      <trkpt lat="44.83396" lon="5.43872">
        <ele>1619.48</ele>
        <time>2020-12-23T08:15:11Z</time>
      </trkpt>
      <trkpt lat="44.83396" lon="5.43873">
        <ele>1620.44</ele>
        <time>2020-12-23T08:15:20Z</time>
      </trkpt>
      <trkpt lat="44.834" lon="5.43884">
        <ele>1621.88</ele>
        <time>2020-12-23T08:15:26Z</time>
      </trkpt>
      <trkpt lat="44.83398" lon="5.43909">
        <ele>1623.8</ele>
        <time>2020-12-23T08:15:37Z</time>
      </trkpt>
      <trkpt lat="44.83399" lon="5.43916">
        <ele>1624.28</ele>
        <time>2020-12-23T08:15:41Z</time>
      </trkpt>
      <trkpt lat="44.83398" lon="5.43931">
        <ele>1626.69</ele>
        <time>2020-12-23T08:15:52Z</time>
      </trkpt>
      <trkpt lat="44.83398" lon="5.43931">
        <ele>1627.17</ele>
        <time>2020-12-23T08:15:54Z</time>
      </trkpt>
      <trkpt lat="44.83397" lon="5.43941">
        <ele>1628.13</ele>
        <time>2020-12-23T08:16:03Z</time>
      </trkpt>
      <trkpt lat="44.83396" lon="5.43946">
        <ele>1630.05</ele>
        <time>2020-12-23T08:16:07Z</time>
      </trkpt>
      <trkpt lat="44.8339" lon="5.4397">
        <ele>1631.01</ele>
        <time>2020-12-23T08:16:21Z</time>
      </trkpt>
      <trkpt lat="44.83386" lon="5.43977">
        <ele>1631.98</ele>
        <time>2020-12-23T08:16:25Z</time>
      </trkpt>
      <trkpt lat="44.83377" lon="5.43994">
        <ele>1634.38</ele>
        <time>2020-12-23T08:16:34Z</time>
      </trkpt>
      <trkpt lat="44.83376" lon="5.43997">
        <ele>1634.38</ele>
        <time>2020-12-23T08:16:36Z</time>
      </trkpt>
      <trkpt lat="44.83369" lon="5.44012">
        <ele>1635.82</ele>
        <time>2020-12-23T08:16:46Z</time>
      </trkpt>
      <trkpt lat="44.83369" lon="5.44012">
        <ele>1633.9</ele>
        <time>2020-12-23T08:16:56Z</time>
      </trkpt>
      <trkpt lat="44.83369" lon="5.44012">
        <ele>1637.74</ele>
        <time>2020-12-23T08:17:09Z</time>
      </trkpt>
      <trkpt lat="44.83369" lon="5.44014">
        <ele>1635.82</ele>
        <time>2020-12-23T08:17:12Z</time>
      </trkpt>
      <trkpt lat="44.83368" lon="5.44018">
        <ele>1635.82</ele>
        <time>2020-12-23T08:17:17Z</time>
      </trkpt>
      <trkpt lat="44.83364" lon="5.44026">
        <ele>1635.82</ele>
        <time>2020-12-23T08:17:24Z</time>
      </trkpt>
      <trkpt lat="44.83363" lon="5.4403">
        <ele>1635.34</ele>
        <time>2020-12-23T08:17:39Z</time>
      </trkpt>
      <trkpt lat="44.83363" lon="5.4403">
        <ele>1635.82</ele>
        <time>2020-12-23T08:18:05Z</time>
      </trkpt>
      <trkpt lat="44.83363" lon="5.4403">
        <ele>1634.86</ele>
        <time>2020-12-23T08:18:11Z</time>
      </trkpt>
      <trkpt lat="44.83351" lon="5.44038">
        <ele>1635.82</ele>
        <time>2020-12-23T08:18:21Z</time>
      </trkpt>
      <trkpt lat="44.83348" lon="5.44036">
        <ele>1634.86</ele>
        <time>2020-12-23T08:18:24Z</time>
      </trkpt>
      <trkpt lat="44.83342" lon="5.44037">
        <ele>1634.86</ele>
        <time>2020-12-23T08:18:28Z</time>
      </trkpt>
      <trkpt lat="44.83337" lon="5.44037">
        <ele>1633.9</ele>
        <time>2020-12-23T08:18:33Z</time>
      </trkpt>
      <trkpt lat="44.83334" lon="5.44036">
        <ele>1633.42</ele>
        <time>2020-12-23T08:18:36Z</time>
      </trkpt>
      <trkpt lat="44.83327" lon="5.44039">
        <ele>1633.42</ele>
        <time>2020-12-23T08:18:42Z</time>
      </trkpt>
      <trkpt lat="44.8332" lon="5.4404">
        <ele>1634.38</ele>
        <time>2020-12-23T08:18:49Z</time>
      </trkpt>
      <trkpt lat="44.83308" lon="5.44045">
        <ele>1636.3</ele>
        <time>2020-12-23T08:18:59Z</time>
      </trkpt>
      <trkpt lat="44.83288" lon="5.4405">
        <ele>1638.7</ele>
        <time>2020-12-23T08:19:13Z</time>
      </trkpt>
      <trkpt lat="44.83286" lon="5.4405">
        <ele>1638.7</ele>
        <time>2020-12-23T08:19:14Z</time>
      </trkpt>
      <trkpt lat="44.83281" lon="5.44053">
        <ele>1638.22</ele>
        <time>2020-12-23T08:19:20Z</time>
      </trkpt>
      <trkpt lat="44.83271" lon="5.44058">
        <ele>1637.74</ele>
        <time>2020-12-23T08:19:27Z</time>
      </trkpt>
      <trkpt lat="44.83256" lon="5.44057">
        <ele>1633.9</ele>
        <time>2020-12-23T08:19:38Z</time>
      </trkpt>
      <trkpt lat="44.83252" lon="5.44058">
        <ele>1633.9</ele>
        <time>2020-12-23T08:19:43Z</time>
      </trkpt>
      <trkpt lat="44.83249" lon="5.44058">
        <ele>1634.38</ele>
        <time>2020-12-23T08:19:46Z</time>
      </trkpt>
      <trkpt lat="44.83238" lon="5.44063">
        <ele>1636.78</ele>
        <time>2020-12-23T08:19:58Z</time>
      </trkpt>
      <trkpt lat="44.83226" lon="5.44086">
        <ele>1635.82</ele>
        <time>2020-12-23T08:20:09Z</time>
      </trkpt>
      <trkpt lat="44.83222" lon="5.44102">
        <ele>1633.9</ele>
        <time>2020-12-23T08:20:22Z</time>
      </trkpt>
      <trkpt lat="44.83222" lon="5.44102">
        <ele>1633.9</ele>
        <time>2020-12-23T08:20:51Z</time>
      </trkpt>
      <trkpt lat="44.83222" lon="5.44102">
        <ele>1633.9</ele>
        <time>2020-12-23T08:20:59Z</time>
      </trkpt>
      <trkpt lat="44.83221" lon="5.44112">
        <ele>1632.94</ele>
        <time>2020-12-23T08:21:05Z</time>
      </trkpt>
      <trkpt lat="44.83224" lon="5.44123">
        <ele>1631.98</ele>
        <time>2020-12-23T08:21:11Z</time>
      </trkpt>
      <trkpt lat="44.83222" lon="5.44132">
        <ele>1631.01</ele>
        <time>2020-12-23T08:21:18Z</time>
      </trkpt>
      <trkpt lat="44.83221" lon="5.44136">
        <ele>1630.53</ele>
        <time>2020-12-23T08:21:21Z</time>
      </trkpt>
      <trkpt lat="44.83221" lon="5.44141">
        <ele>1629.57</ele>
        <time>2020-12-23T08:21:24Z</time>
      </trkpt>
      <trkpt lat="44.8322" lon="5.4416">
        <ele>1626.69</ele>
        <time>2020-12-23T08:21:35Z</time>
      </trkpt>
      <trkpt lat="44.83218" lon="5.44169">
        <ele>1625.25</ele>
        <time>2020-12-23T08:21:42Z</time>
      </trkpt>
      <trkpt lat="44.83215" lon="5.44174">
        <ele>1623.8</ele>
        <time>2020-12-23T08:21:46Z</time>
      </trkpt>
      <trkpt lat="44.83214" lon="5.44182">
        <ele>1622.36</ele>
        <time>2020-12-23T08:21:51Z</time>
      </trkpt>
      <trkpt lat="44.83206" lon="5.44198">
        <ele>1619.96</ele>
        <time>2020-12-23T08:22:05Z</time>
      </trkpt>
      <trkpt lat="44.83201" lon="5.4422">
        <ele>1620.92</ele>
        <time>2020-12-23T08:22:16Z</time>
      </trkpt>
      <trkpt lat="44.83201" lon="5.44224">
        <ele>1620.44</ele>
        <time>2020-12-23T08:22:19Z</time>
      </trkpt>
      <trkpt lat="44.832" lon="5.44232">
        <ele>1621.4</ele>
        <time>2020-12-23T08:22:25Z</time>
      </trkpt>
      <trkpt lat="44.83198" lon="5.44239">
        <ele>1621.88</ele>
        <time>2020-12-23T08:22:30Z</time>
      </trkpt>
      <trkpt lat="44.83192" lon="5.4426">
        <ele>1621.4</ele>
        <time>2020-12-23T08:22:42Z</time>
      </trkpt>
      <trkpt lat="44.83192" lon="5.44263">
        <ele>1622.36</ele>
        <time>2020-12-23T08:22:46Z</time>
      </trkpt>
      <trkpt lat="44.83188" lon="5.44273">
        <ele>1623.32</ele>
        <time>2020-12-23T08:22:53Z</time>
      </trkpt>
      <trkpt lat="44.83187" lon="5.44296">
        <ele>1623.8</ele>
        <time>2020-12-23T08:23:06Z</time>
      </trkpt>
      <trkpt lat="44.83187" lon="5.44302">
        <ele>1624.28</ele>
        <time>2020-12-23T08:23:10Z</time>
      </trkpt>
      <trkpt lat="44.83186" lon="5.44309">
        <ele>1625.73</ele>
        <time>2020-12-23T08:23:16Z</time>
      </trkpt>
      <trkpt lat="44.83187" lon="5.44316">
        <ele>1626.69</ele>
        <time>2020-12-23T08:23:22Z</time>
      </trkpt>
      <trkpt lat="44.83187" lon="5.44323">
        <ele>1628.13</ele>
        <time>2020-12-23T08:23:28Z</time>
      </trkpt>
      <trkpt lat="44.83187" lon="5.44333">
        <ele>1630.05</ele>
        <time>2020-12-23T08:23:36Z</time>
      </trkpt>
      <trkpt lat="44.83189" lon="5.4435">
        <ele>1631.01</ele>
        <time>2020-12-23T08:23:46Z</time>
      </trkpt>
      <trkpt lat="44.8319" lon="5.44355">
        <ele>1631.01</ele>
        <time>2020-12-23T08:23:51Z</time>
      </trkpt>
      <trkpt lat="44.83192" lon="5.44363">
        <ele>1631.01</ele>
        <time>2020-12-23T08:23:57Z</time>
      </trkpt>
      <trkpt lat="44.83196" lon="5.44378">
        <ele>1629.09</ele>
        <time>2020-12-23T08:24:06Z</time>
      </trkpt>
      <trkpt lat="44.83199" lon="5.44389">
        <ele>1628.61</ele>
        <time>2020-12-23T08:24:12Z</time>
      </trkpt>
      <trkpt lat="44.83203" lon="5.44404">
        <ele>1628.13</ele>
        <time>2020-12-23T08:24:22Z</time>
      </trkpt>
      <trkpt lat="44.83203" lon="5.4441">
        <ele>1627.65</ele>
        <time>2020-12-23T08:24:26Z</time>
      </trkpt>
      <trkpt lat="44.83202" lon="5.44413">
        <ele>1628.13</ele>
        <time>2020-12-23T08:24:28Z</time>
      </trkpt>
      <trkpt lat="44.83203" lon="5.4443">
        <ele>1627.17</ele>
        <time>2020-12-23T08:24:38Z</time>
      </trkpt>
      <trkpt lat="44.832" lon="5.44441">
        <ele>1627.17</ele>
        <time>2020-12-23T08:24:44Z</time>
      </trkpt>
      <trkpt lat="44.83198" lon="5.44453">
        <ele>1627.17</ele>
        <time>2020-12-23T08:24:49Z</time>
      </trkpt>
      <trkpt lat="44.83198" lon="5.44462">
        <ele>1626.69</ele>
        <time>2020-12-23T08:24:55Z</time>
      </trkpt>
      <trkpt lat="44.83197" lon="5.44481">
        <ele>1625.25</ele>
        <time>2020-12-23T08:25:04Z</time>
      </trkpt>
      <trkpt lat="44.83196" lon="5.44486">
        <ele>1625.25</ele>
        <time>2020-12-23T08:25:08Z</time>
      </trkpt>
      <trkpt lat="44.83197" lon="5.44504">
        <ele>1622.36</ele>
        <time>2020-12-23T08:25:19Z</time>
      </trkpt>
      <trkpt lat="44.83194" lon="5.44522">
        <ele>1620.92</ele>
        <time>2020-12-23T08:25:27Z</time>
      </trkpt>
      <trkpt lat="44.83193" lon="5.44529">
        <ele>1619.96</ele>
        <time>2020-12-23T08:25:32Z</time>
      </trkpt>
      <trkpt lat="44.83192" lon="5.44544">
        <ele>1619</ele>
        <time>2020-12-23T08:25:41Z</time>
      </trkpt>
      <trkpt lat="44.83191" lon="5.44547">
        <ele>1619</ele>
        <time>2020-12-23T08:25:43Z</time>
      </trkpt>
      <trkpt lat="44.83188" lon="5.44557">
        <ele>1618.52</ele>
        <time>2020-12-23T08:25:50Z</time>
      </trkpt>
      <trkpt lat="44.83186" lon="5.44558">
        <ele>1617.56</ele>
        <time>2020-12-23T08:25:52Z</time>
      </trkpt>
      <trkpt lat="44.83185" lon="5.44561">
        <ele>1617.56</ele>
        <time>2020-12-23T08:25:54Z</time>
      </trkpt>
      <trkpt lat="44.83188" lon="5.44583">
        <ele>1614.67</ele>
        <time>2020-12-23T08:26:06Z</time>
      </trkpt>
      <trkpt lat="44.83189" lon="5.44586">
        <ele>1614.19</ele>
        <time>2020-12-23T08:26:08Z</time>
      </trkpt>
      <trkpt lat="44.8319" lon="5.44596">
        <ele>1613.71</ele>
        <time>2020-12-23T08:26:14Z</time>
      </trkpt>
      <trkpt lat="44.83192" lon="5.44609">
        <ele>1612.27</ele>
        <time>2020-12-23T08:26:23Z</time>
      </trkpt>
      <trkpt lat="44.83194" lon="5.44628">
        <ele>1611.31</ele>
        <time>2020-12-23T08:26:34Z</time>
      </trkpt>
      <trkpt lat="44.83193" lon="5.44632">
        <ele>1610.35</ele>
        <time>2020-12-23T08:26:37Z</time>
      </trkpt>
      <trkpt lat="44.83192" lon="5.44643">
        <ele>1610.35</ele>
        <time>2020-12-23T08:26:44Z</time>
      </trkpt>
      <trkpt lat="44.83187" lon="5.44663">
        <ele>1610.35</ele>
        <time>2020-12-23T08:26:57Z</time>
      </trkpt>
      <trkpt lat="44.83186" lon="5.44667">
        <ele>1611.31</ele>
        <time>2020-12-23T08:27:01Z</time>
      </trkpt>
      <trkpt lat="44.83186" lon="5.44675">
        <ele>1611.79</ele>
        <time>2020-12-23T08:27:08Z</time>
      </trkpt>
      <trkpt lat="44.83183" lon="5.44687">
        <ele>1611.31</ele>
        <time>2020-12-23T08:27:17Z</time>
      </trkpt>
      <trkpt lat="44.83179" lon="5.44695">
        <ele>1612.27</ele>
        <time>2020-12-23T08:27:25Z</time>
      </trkpt>
      <trkpt lat="44.83167" lon="5.44711">
        <ele>1613.23</ele>
        <time>2020-12-23T08:27:38Z</time>
      </trkpt>
      <trkpt lat="44.83163" lon="5.44721">
        <ele>1613.23</ele>
        <time>2020-12-23T08:27:45Z</time>
      </trkpt>
      <trkpt lat="44.83163" lon="5.44731">
        <ele>1612.27</ele>
        <time>2020-12-23T08:27:51Z</time>
      </trkpt>
      <trkpt lat="44.83162" lon="5.44735">
        <ele>1612.75</ele>
        <time>2020-12-23T08:27:53Z</time>
      </trkpt>
      <trkpt lat="44.83159" lon="5.44747">
        <ele>1612.27</ele>
        <time>2020-12-23T08:28:02Z</time>
      </trkpt>
      <trkpt lat="44.83158" lon="5.4476">
        <ele>1611.31</ele>
        <time>2020-12-23T08:28:11Z</time>
      </trkpt>
      <trkpt lat="44.83156" lon="5.4477">
        <ele>1609.38</ele>
        <time>2020-12-23T08:28:24Z</time>
      </trkpt>
      <trkpt lat="44.83156" lon="5.4477">
        <ele>1609.38</ele>
        <time>2020-12-23T08:28:57Z</time>
      </trkpt>
      <trkpt lat="44.83156" lon="5.44771">
        <ele>1609.86</ele>
        <time>2020-12-23T08:29:21Z</time>
      </trkpt>
      <trkpt lat="44.83155" lon="5.44773">
        <ele>1609.86</ele>
        <time>2020-12-23T08:29:23Z</time>
      </trkpt>
      <trkpt lat="44.83154" lon="5.44778">
        <ele>1609.38</ele>
        <time>2020-12-23T08:29:26Z</time>
      </trkpt>
      <trkpt lat="44.83147" lon="5.44798">
        <ele>1606.98</ele>
        <time>2020-12-23T08:29:38Z</time>
      </trkpt>
      <trkpt lat="44.83142" lon="5.44806">
        <ele>1604.58</ele>
        <time>2020-12-23T08:29:45Z</time>
      </trkpt>
      <trkpt lat="44.83139" lon="5.4481">
        <ele>1603.62</ele>
        <time>2020-12-23T08:29:49Z</time>
      </trkpt>
      <trkpt lat="44.83136" lon="5.44819">
        <ele>1604.1</ele>
        <time>2020-12-23T08:29:54Z</time>
      </trkpt>
      <trkpt lat="44.83134" lon="5.44834">
        <ele>1602.17</ele>
        <time>2020-12-23T08:30:05Z</time>
      </trkpt>
      <trkpt lat="44.83133" lon="5.44844">
        <ele>1602.17</ele>
        <time>2020-12-23T08:30:09Z</time>
      </trkpt>
      <trkpt lat="44.83133" lon="5.4485">
        <ele>1601.69</ele>
        <time>2020-12-23T08:30:15Z</time>
      </trkpt>
      <trkpt lat="44.83131" lon="5.44855">
        <ele>1601.69</ele>
        <time>2020-12-23T08:30:18Z</time>
      </trkpt>
      <trkpt lat="44.83129" lon="5.44865">
        <ele>1601.69</ele>
        <time>2020-12-23T08:30:25Z</time>
      </trkpt>
      <trkpt lat="44.83129" lon="5.44871">
        <ele>1602.17</ele>
        <time>2020-12-23T08:30:28Z</time>
      </trkpt>
      <trkpt lat="44.83127" lon="5.44892">
        <ele>1602.66</ele>
        <time>2020-12-23T08:30:40Z</time>
      </trkpt>
      <trkpt lat="44.83127" lon="5.44901">
        <ele>1601.21</ele>
        <time>2020-12-23T08:30:44Z</time>
      </trkpt>
      <trkpt lat="44.83126" lon="5.44909">
        <ele>1601.21</ele>
        <time>2020-12-23T08:30:51Z</time>
      </trkpt>
      <trkpt lat="44.83121" lon="5.4493">
        <ele>1599.77</ele>
        <time>2020-12-23T08:31:03Z</time>
      </trkpt>
      <trkpt lat="44.8312" lon="5.44935">
        <ele>1599.29</ele>
        <time>2020-12-23T08:31:05Z</time>
      </trkpt>
      <trkpt lat="44.83117" lon="5.44942">
        <ele>1598.81</ele>
        <time>2020-12-23T08:31:10Z</time>
      </trkpt>
      <trkpt lat="44.83115" lon="5.44945">
        <ele>1598.81</ele>
        <time>2020-12-23T08:31:12Z</time>
      </trkpt>
      <trkpt lat="44.83109" lon="5.44963">
        <ele>1597.85</ele>
        <time>2020-12-23T08:31:23Z</time>
      </trkpt>
      <trkpt lat="44.83104" lon="5.44977">
        <ele>1596.89</ele>
        <time>2020-12-23T08:31:32Z</time>
      </trkpt>
      <trkpt lat="44.83102" lon="5.4498">
        <ele>1595.45</ele>
        <time>2020-12-23T08:31:35Z</time>
      </trkpt>
      <trkpt lat="44.83092" lon="5.45003">
        <ele>1593.52</ele>
        <time>2020-12-23T08:31:49Z</time>
      </trkpt>
      <trkpt lat="44.83091" lon="5.45005">
        <ele>1593.52</ele>
        <time>2020-12-23T08:31:51Z</time>
      </trkpt>
      <trkpt lat="44.83089" lon="5.45008">
        <ele>1592.56</ele>
        <time>2020-12-23T08:31:54Z</time>
      </trkpt>
      <trkpt lat="44.83081" lon="5.45024">
        <ele>1591.6</ele>
        <time>2020-12-23T08:32:06Z</time>
      </trkpt>
      <trkpt lat="44.83073" lon="5.45037">
        <ele>1592.56</ele>
        <time>2020-12-23T08:32:17Z</time>
      </trkpt>
      <trkpt lat="44.83067" lon="5.45049">
        <ele>1590.64</ele>
        <time>2020-12-23T08:32:25Z</time>
      </trkpt>
      <trkpt lat="44.83055" lon="5.45068">
        <ele>1588.72</ele>
        <time>2020-12-23T08:32:41Z</time>
      </trkpt>
      <trkpt lat="44.83048" lon="5.45082">
        <ele>1586.79</ele>
        <time>2020-12-23T08:32:50Z</time>
      </trkpt>
      <trkpt lat="44.83037" lon="5.451">
        <ele>1582.95</ele>
        <time>2020-12-23T08:33:03Z</time>
      </trkpt>
      <trkpt lat="44.83029" lon="5.45118">
        <ele>1580.54</ele>
        <time>2020-12-23T08:33:15Z</time>
      </trkpt>
      <trkpt lat="44.83019" lon="5.45134">
        <ele>1578.14</ele>
        <time>2020-12-23T08:33:28Z</time>
      </trkpt>
      <trkpt lat="44.8301" lon="5.4515">
        <ele>1576.22</ele>
        <time>2020-12-23T08:33:41Z</time>
      </trkpt>
      <trkpt lat="44.83004" lon="5.45157">
        <ele>1574.78</ele>
        <time>2020-12-23T08:33:47Z</time>
      </trkpt>
      <trkpt lat="44.82993" lon="5.45172">
        <ele>1571.89</ele>
        <time>2020-12-23T08:34:00Z</time>
      </trkpt>
      <trkpt lat="44.82984" lon="5.45186">
        <ele>1568.53</ele>
        <time>2020-12-23T08:34:10Z</time>
      </trkpt>
      <trkpt lat="44.82976" lon="5.452">
        <ele>1565.64</ele>
        <time>2020-12-23T08:34:22Z</time>
      </trkpt>
      <trkpt lat="44.82968" lon="5.45216">
        <ele>1562.28</ele>
        <time>2020-12-23T08:34:33Z</time>
      </trkpt>
      <trkpt lat="44.82967" lon="5.45225">
        <ele>1561.32</ele>
        <time>2020-12-23T08:34:40Z</time>
      </trkpt>
      <trkpt lat="44.82962" lon="5.45238">
        <ele>1559.4</ele>
        <time>2020-12-23T08:34:47Z</time>
      </trkpt>
      <trkpt lat="44.82959" lon="5.45246">
        <ele>1556.99</ele>
        <time>2020-12-23T08:34:52Z</time>
      </trkpt>
      <trkpt lat="44.82957" lon="5.45264">
        <ele>1554.59</ele>
        <time>2020-12-23T08:35:01Z</time>
      </trkpt>
      <trkpt lat="44.82963" lon="5.45283">
        <ele>1554.11</ele>
        <time>2020-12-23T08:35:10Z</time>
      </trkpt>
      <trkpt lat="44.82967" lon="5.45289">
        <ele>1551.22</ele>
        <time>2020-12-23T08:35:16Z</time>
      </trkpt>
      <trkpt lat="44.82971" lon="5.45298">
        <ele>1550.26</ele>
        <time>2020-12-23T08:35:22Z</time>
      </trkpt>
      <trkpt lat="44.82977" lon="5.45315">
        <ele>1549.3</ele>
        <time>2020-12-23T08:35:32Z</time>
      </trkpt>
      <trkpt lat="44.82981" lon="5.45326">
        <ele>1548.34</ele>
        <time>2020-12-23T08:35:38Z</time>
      </trkpt>
      <trkpt lat="44.8299" lon="5.45335">
        <ele>1547.38</ele>
        <time>2020-12-23T08:35:46Z</time>
      </trkpt>
      <trkpt lat="44.82994" lon="5.45343">
        <ele>1545.46</ele>
        <time>2020-12-23T08:35:52Z</time>
      </trkpt>
      <trkpt lat="44.82998" lon="5.45353">
        <ele>1545.94</ele>
        <time>2020-12-23T08:35:57Z</time>
      </trkpt>
      <trkpt lat="44.83006" lon="5.45369">
        <ele>1547.86</ele>
        <time>2020-12-23T08:36:08Z</time>
      </trkpt>
      <trkpt lat="44.83006" lon="5.45367">
        <ele>1548.34</ele>
        <time>2020-12-23T08:36:10Z</time>
      </trkpt>
      <trkpt lat="44.83006" lon="5.45366">
        <ele>1544.5</ele>
        <time>2020-12-23T08:36:12Z</time>
      </trkpt>
      <trkpt lat="44.83006" lon="5.45366">
        <ele>1545.94</ele>
        <time>2020-12-23T08:36:13Z</time>
      </trkpt>
      <trkpt lat="44.83006" lon="5.45366">
        <ele>1546.42</ele>
        <time>2020-12-23T08:36:14Z</time>
      </trkpt>
      <trkpt lat="44.83009" lon="5.45372">
        <ele>1547.86</ele>
        <time>2020-12-23T08:36:28Z</time>
      </trkpt>
      <trkpt lat="44.83012" lon="5.45381">
        <ele>1548.82</ele>
        <time>2020-12-23T08:36:33Z</time>
      </trkpt>
      <trkpt lat="44.83016" lon="5.45393">
        <ele>1548.82</ele>
        <time>2020-12-23T08:36:38Z</time>
      </trkpt>
      <trkpt lat="44.83023" lon="5.45411">
        <ele>1548.82</ele>
        <time>2020-12-23T08:36:51Z</time>
      </trkpt>
      <trkpt lat="44.83032" lon="5.45426">
        <ele>1548.34</ele>
        <time>2020-12-23T08:37:01Z</time>
      </trkpt>
      <trkpt lat="44.83035" lon="5.45433">
        <ele>1548.82</ele>
        <time>2020-12-23T08:37:06Z</time>
      </trkpt>
      <trkpt lat="44.83037" lon="5.45437">
        <ele>1550.26</ele>
        <time>2020-12-23T08:37:10Z</time>
      </trkpt>
      <trkpt lat="44.83047" lon="5.45455">
        <ele>1551.22</ele>
        <time>2020-12-23T08:37:22Z</time>
      </trkpt>
      <trkpt lat="44.83048" lon="5.45455">
        <ele>1551.22</ele>
        <time>2020-12-23T08:37:23Z</time>
      </trkpt>
      <trkpt lat="44.83052" lon="5.4546">
        <ele>1552.67</ele>
        <time>2020-12-23T08:37:27Z</time>
      </trkpt>
      <trkpt lat="44.8306" lon="5.45467">
        <ele>1553.15</ele>
        <time>2020-12-23T08:37:36Z</time>
      </trkpt>
      <trkpt lat="44.83075" lon="5.45479">
        <ele>1554.11</ele>
        <time>2020-12-23T08:37:49Z</time>
      </trkpt>
      <trkpt lat="44.83078" lon="5.45481">
        <ele>1554.59</ele>
        <time>2020-12-23T08:37:53Z</time>
      </trkpt>
      <trkpt lat="44.83085" lon="5.45485">
        <ele>1556.03</ele>
        <time>2020-12-23T08:38:00Z</time>
      </trkpt>
      <trkpt lat="44.83089" lon="5.45485">
        <ele>1556.51</ele>
        <time>2020-12-23T08:38:04Z</time>
      </trkpt>
      <trkpt lat="44.83091" lon="5.45486">
        <ele>1556.51</ele>
        <time>2020-12-23T08:38:06Z</time>
      </trkpt>
      <trkpt lat="44.83107" lon="5.45494">
        <ele>1557.95</ele>
        <time>2020-12-23T08:38:18Z</time>
      </trkpt>
      <trkpt lat="44.83109" lon="5.45496">
        <ele>1557.95</ele>
        <time>2020-12-23T08:38:21Z</time>
      </trkpt>
      <trkpt lat="44.83113" lon="5.45499">
        <ele>1557.47</ele>
        <time>2020-12-23T08:38:24Z</time>
      </trkpt>
      <trkpt lat="44.83115" lon="5.45502">
        <ele>1557.47</ele>
        <time>2020-12-23T08:38:26Z</time>
      </trkpt>
      <trkpt lat="44.8312" lon="5.45504">
        <ele>1558.92</ele>
        <time>2020-12-23T08:38:33Z</time>
      </trkpt>
      <trkpt lat="44.8313" lon="5.45512">
        <ele>1558.43</ele>
        <time>2020-12-23T08:38:44Z</time>
      </trkpt>
      <trkpt lat="44.8313" lon="5.45513">
        <ele>1558.43</ele>
        <time>2020-12-23T08:38:45Z</time>
      </trkpt>
      <trkpt lat="44.83132" lon="5.45514">
        <ele>1558.43</ele>
        <time>2020-12-23T08:38:47Z</time>
      </trkpt>
      <trkpt lat="44.83136" lon="5.45515">
        <ele>1558.43</ele>
        <time>2020-12-23T08:38:51Z</time>
      </trkpt>
      <trkpt lat="44.83148" lon="5.4552">
        <ele>1561.8</ele>
        <time>2020-12-23T08:39:03Z</time>
      </trkpt>
      <trkpt lat="44.8315" lon="5.4552">
        <ele>1561.8</ele>
        <time>2020-12-23T08:39:05Z</time>
      </trkpt>
      <trkpt lat="44.83166" lon="5.45527">
        <ele>1562.28</ele>
        <time>2020-12-23T08:39:18Z</time>
      </trkpt>
      <trkpt lat="44.83178" lon="5.45539">
        <ele>1560.84</ele>
        <time>2020-12-23T08:39:31Z</time>
      </trkpt>
      <trkpt lat="44.83188" lon="5.45548">
        <ele>1562.76</ele>
        <time>2020-12-23T08:39:44Z</time>
      </trkpt>
      <trkpt lat="44.83191" lon="5.45551">
        <ele>1563.24</ele>
        <time>2020-12-23T08:39:47Z</time>
      </trkpt>
      <trkpt lat="44.83196" lon="5.45556">
        <ele>1563.24</ele>
        <time>2020-12-23T08:39:51Z</time>
      </trkpt>
      <trkpt lat="44.83205" lon="5.45562">
        <ele>1562.76</ele>
        <time>2020-12-23T08:40:00Z</time>
      </trkpt>
      <trkpt lat="44.83211" lon="5.45567">
        <ele>1562.76</ele>
        <time>2020-12-23T08:40:06Z</time>
      </trkpt>
      <trkpt lat="44.83211" lon="5.45571">
        <ele>1563.24</ele>
        <time>2020-12-23T08:40:09Z</time>
      </trkpt>
      <trkpt lat="44.83212" lon="5.45577">
        <ele>1562.76</ele>
        <time>2020-12-23T08:40:14Z</time>
      </trkpt>
      <trkpt lat="44.83213" lon="5.45579">
        <ele>1562.28</ele>
        <time>2020-12-23T08:40:16Z</time>
      </trkpt>
      <trkpt lat="44.8322" lon="5.45595">
        <ele>1562.76</ele>
        <time>2020-12-23T08:40:29Z</time>
      </trkpt>
      <trkpt lat="44.8322" lon="5.45597">
        <ele>1563.24</ele>
        <time>2020-12-23T08:40:32Z</time>
      </trkpt>
      <trkpt lat="44.83225" lon="5.45611">
        <ele>1564.68</ele>
        <time>2020-12-23T08:40:45Z</time>
      </trkpt>
      <trkpt lat="44.83227" lon="5.45615">
        <ele>1564.68</ele>
        <time>2020-12-23T08:40:48Z</time>
      </trkpt>
      <trkpt lat="44.8323" lon="5.45622">
        <ele>1566.12</ele>
        <time>2020-12-23T08:40:54Z</time>
      </trkpt>
      <trkpt lat="44.83231" lon="5.45623">
        <ele>1565.64</ele>
        <time>2020-12-23T08:40:56Z</time>
      </trkpt>
      <trkpt lat="44.83235" lon="5.45633">
        <ele>1565.16</ele>
        <time>2020-12-23T08:41:03Z</time>
      </trkpt>
      <trkpt lat="44.83235" lon="5.45644">
        <ele>1565.16</ele>
        <time>2020-12-23T08:41:07Z</time>
      </trkpt>
      <trkpt lat="44.83234" lon="5.45668">
        <ele>1563.72</ele>
        <time>2020-12-23T08:41:20Z</time>
      </trkpt>
      <trkpt lat="44.83236" lon="5.45681">
        <ele>1565.16</ele>
        <time>2020-12-23T08:41:29Z</time>
      </trkpt>
      <trkpt lat="44.83236" lon="5.45692">
        <ele>1566.61</ele>
        <time>2020-12-23T08:41:36Z</time>
      </trkpt>
      <trkpt lat="44.83237" lon="5.45698">
        <ele>1567.57</ele>
        <time>2020-12-23T08:41:41Z</time>
      </trkpt>
      <trkpt lat="44.83241" lon="5.45707">
        <ele>1569.97</ele>
        <time>2020-12-23T08:41:48Z</time>
      </trkpt>
      <trkpt lat="44.83246" lon="5.45723">
        <ele>1568.05</ele>
        <time>2020-12-23T08:41:59Z</time>
      </trkpt>
      <trkpt lat="44.83247" lon="5.45733">
        <ele>1569.01</ele>
        <time>2020-12-23T08:42:05Z</time>
      </trkpt>
      <trkpt lat="44.8325" lon="5.45742">
        <ele>1569.01</ele>
        <time>2020-12-23T08:42:13Z</time>
      </trkpt>
      <trkpt lat="44.83251" lon="5.45749">
        <ele>1569.49</ele>
        <time>2020-12-23T08:42:19Z</time>
      </trkpt>
      <trkpt lat="44.83256" lon="5.45766">
        <ele>1569.97</ele>
        <time>2020-12-23T08:42:32Z</time>
      </trkpt>
      <trkpt lat="44.83258" lon="5.45774">
        <ele>1570.93</ele>
        <time>2020-12-23T08:42:39Z</time>
      </trkpt>
      <trkpt lat="44.83259" lon="5.45784">
        <ele>1570.93</ele>
        <time>2020-12-23T08:42:46Z</time>
      </trkpt>
      <trkpt lat="44.83262" lon="5.45792">
        <ele>1570.93</ele>
        <time>2020-12-23T08:42:53Z</time>
      </trkpt>
      <trkpt lat="44.83267" lon="5.45796">
        <ele>1571.41</ele>
        <time>2020-12-23T08:42:58Z</time>
      </trkpt>
      <trkpt lat="44.83271" lon="5.45807">
        <ele>1572.37</ele>
        <time>2020-12-23T08:43:05Z</time>
      </trkpt>
      <trkpt lat="44.83271" lon="5.4581">
        <ele>1571.89</ele>
        <time>2020-12-23T08:43:07Z</time>
      </trkpt>
      <trkpt lat="44.83274" lon="5.45828">
        <ele>1572.85</ele>
        <time>2020-12-23T08:43:20Z</time>
      </trkpt>
      <trkpt lat="44.83274" lon="5.4583">
        <ele>1572.85</ele>
        <time>2020-12-23T08:43:22Z</time>
      </trkpt>
      <trkpt lat="44.83272" lon="5.45841">
        <ele>1573.82</ele>
        <time>2020-12-23T08:43:30Z</time>
      </trkpt>
      <trkpt lat="44.83273" lon="5.45852">
        <ele>1574.3</ele>
        <time>2020-12-23T08:43:42Z</time>
      </trkpt>
      <trkpt lat="44.83273" lon="5.45852">
        <ele>1574.3</ele>
        <time>2020-12-23T08:43:56Z</time>
      </trkpt>
      <trkpt lat="44.83273" lon="5.45846">
        <ele>1573.82</ele>
        <time>2020-12-23T08:44:00Z</time>
      </trkpt>
      <trkpt lat="44.83274" lon="5.45842">
        <ele>1573.33</ele>
        <time>2020-12-23T08:44:03Z</time>
      </trkpt>
      <trkpt lat="44.83272" lon="5.45832">
        <ele>1572.37</ele>
        <time>2020-12-23T08:44:15Z</time>
      </trkpt>
      <trkpt lat="44.83274" lon="5.45829">
        <ele>1573.82</ele>
        <time>2020-12-23T08:44:35Z</time>
      </trkpt>
      <trkpt lat="44.83275" lon="5.45814">
        <ele>1572.85</ele>
        <time>2020-12-23T08:44:46Z</time>
      </trkpt>
      <trkpt lat="44.83273" lon="5.45801">
        <ele>1572.37</ele>
        <time>2020-12-23T08:44:56Z</time>
      </trkpt>
      <trkpt lat="44.83271" lon="5.45793">
        <ele>1573.82</ele>
        <time>2020-12-23T08:45:01Z</time>
      </trkpt>
      <trkpt lat="44.8327" lon="5.45791">
        <ele>1572.85</ele>
        <time>2020-12-23T08:45:03Z</time>
      </trkpt>
      <trkpt lat="44.83268" lon="5.4578">
        <ele>1572.37</ele>
        <time>2020-12-23T08:45:11Z</time>
      </trkpt>
      <trkpt lat="44.83266" lon="5.45775">
        <ele>1572.85</ele>
        <time>2020-12-23T08:45:15Z</time>
      </trkpt>
      <trkpt lat="44.83265" lon="5.45767">
        <ele>1571.89</ele>
        <time>2020-12-23T08:45:19Z</time>
      </trkpt>
      <trkpt lat="44.83262" lon="5.4576">
        <ele>1570.93</ele>
        <time>2020-12-23T08:45:25Z</time>
      </trkpt>
      <trkpt lat="44.83257" lon="5.45745">
        <ele>1571.41</ele>
        <time>2020-12-23T08:45:36Z</time>
      </trkpt>
      <trkpt lat="44.83256" lon="5.4574">
        <ele>1570.93</ele>
        <time>2020-12-23T08:45:39Z</time>
      </trkpt>
      <trkpt lat="44.83252" lon="5.45735">
        <ele>1569.49</ele>
        <time>2020-12-23T08:45:42Z</time>
      </trkpt>
      <trkpt lat="44.8325" lon="5.45733">
        <ele>1569.01</ele>
        <time>2020-12-23T08:45:44Z</time>
      </trkpt>
      <trkpt lat="44.83243" lon="5.45716">
        <ele>1568.05</ele>
        <time>2020-12-23T08:45:54Z</time>
      </trkpt>
      <trkpt lat="44.83241" lon="5.45703">
        <ele>1567.57</ele>
        <time>2020-12-23T08:46:03Z</time>
      </trkpt>
      <trkpt lat="44.83243" lon="5.45701">
        <ele>1566.61</ele>
        <time>2020-12-23T08:46:17Z</time>
      </trkpt>
      <trkpt lat="44.83243" lon="5.45701">
        <ele>1568.05</ele>
        <time>2020-12-23T08:46:43Z</time>
      </trkpt>
      <trkpt lat="44.83243" lon="5.45697">
        <ele>1568.05</ele>
        <time>2020-12-23T08:46:47Z</time>
      </trkpt>
      <trkpt lat="44.83242" lon="5.4569">
        <ele>1566.12</ele>
        <time>2020-12-23T08:46:51Z</time>
      </trkpt>
      <trkpt lat="44.83242" lon="5.45686">
        <ele>1566.12</ele>
        <time>2020-12-23T08:46:53Z</time>
      </trkpt>
      <trkpt lat="44.83239" lon="5.45673">
        <ele>1564.68</ele>
        <time>2020-12-23T08:47:00Z</time>
      </trkpt>
      <trkpt lat="44.83238" lon="5.45666">
        <ele>1563.72</ele>
        <time>2020-12-23T08:47:05Z</time>
      </trkpt>
      <trkpt lat="44.83237" lon="5.45663">
        <ele>1563.72</ele>
        <time>2020-12-23T08:47:07Z</time>
      </trkpt>
      <trkpt lat="44.83233" lon="5.45645">
        <ele>1563.72</ele>
        <time>2020-12-23T08:47:18Z</time>
      </trkpt>
      <trkpt lat="44.83234" lon="5.45642">
        <ele>1564.2</ele>
        <time>2020-12-23T08:47:22Z</time>
      </trkpt>
      <trkpt lat="44.83231" lon="5.45636">
        <ele>1564.68</ele>
        <time>2020-12-23T08:47:26Z</time>
      </trkpt>
      <trkpt lat="44.83229" lon="5.45632">
        <ele>1565.64</ele>
        <time>2020-12-23T08:47:30Z</time>
      </trkpt>
      <trkpt lat="44.83228" lon="5.45623">
        <ele>1566.12</ele>
        <time>2020-12-23T08:47:36Z</time>
      </trkpt>
      <trkpt lat="44.83228" lon="5.45618">
        <ele>1565.16</ele>
        <time>2020-12-23T08:47:39Z</time>
      </trkpt>
      <trkpt lat="44.83229" lon="5.4561">
        <ele>1564.68</ele>
        <time>2020-12-23T08:47:45Z</time>
      </trkpt>
      <trkpt lat="44.8322" lon="5.45595">
        <ele>1562.76</ele>
        <time>2020-12-23T08:47:55Z</time>
      </trkpt>
      <trkpt lat="44.83222" lon="5.4559">
        <ele>1562.28</ele>
        <time>2020-12-23T08:47:58Z</time>
      </trkpt>
      <trkpt lat="44.83218" lon="5.45585">
        <ele>1562.28</ele>
        <time>2020-12-23T08:48:02Z</time>
      </trkpt>
      <trkpt lat="44.83217" lon="5.4558">
        <ele>1562.28</ele>
        <time>2020-12-23T08:48:05Z</time>
      </trkpt>
      <trkpt lat="44.83212" lon="5.45577">
        <ele>1562.28</ele>
        <time>2020-12-23T08:48:09Z</time>
      </trkpt>
      <trkpt lat="44.83209" lon="5.4557">
        <ele>1562.76</ele>
        <time>2020-12-23T08:48:16Z</time>
      </trkpt>
      <trkpt lat="44.83201" lon="5.45552">
        <ele>1563.24</ele>
        <time>2020-12-23T08:48:29Z</time>
      </trkpt>
      <trkpt lat="44.83192" lon="5.45543">
        <ele>1563.72</ele>
        <time>2020-12-23T08:48:40Z</time>
      </trkpt>
      <trkpt lat="44.83183" lon="5.45535">
        <ele>1563.72</ele>
        <time>2020-12-23T08:48:50Z</time>
      </trkpt>
      <trkpt lat="44.83176" lon="5.45528">
        <ele>1561.8</ele>
        <time>2020-12-23T08:48:57Z</time>
      </trkpt>
      <trkpt lat="44.83168" lon="5.45523">
        <ele>1561.8</ele>
        <time>2020-12-23T08:49:05Z</time>
      </trkpt>
      <trkpt lat="44.83158" lon="5.45517">
        <ele>1563.24</ele>
        <time>2020-12-23T08:49:14Z</time>
      </trkpt>
      <trkpt lat="44.8315" lon="5.45513">
        <ele>1561.8</ele>
        <time>2020-12-23T08:49:20Z</time>
      </trkpt>
      <trkpt lat="44.83142" lon="5.45511">
        <ele>1561.32</ele>
        <time>2020-12-23T08:49:34Z</time>
      </trkpt>
      <trkpt lat="44.83142" lon="5.45511">
        <ele>1561.32</ele>
        <time>2020-12-23T08:49:58Z</time>
      </trkpt>
      <trkpt lat="44.83142" lon="5.45511">
        <ele>1561.8</ele>
        <time>2020-12-23T08:50:07Z</time>
      </trkpt>
      <trkpt lat="44.83136" lon="5.45505">
        <ele>1559.4</ele>
        <time>2020-12-23T08:50:13Z</time>
      </trkpt>
      <trkpt lat="44.83132" lon="5.45503">
        <ele>1559.4</ele>
        <time>2020-12-23T08:50:16Z</time>
      </trkpt>
      <trkpt lat="44.83124" lon="5.45499">
        <ele>1557.95</ele>
        <time>2020-12-23T08:50:24Z</time>
      </trkpt>
      <trkpt lat="44.83114" lon="5.45493">
        <ele>1557.47</ele>
        <time>2020-12-23T08:50:32Z</time>
      </trkpt>
      <trkpt lat="44.83101" lon="5.45484">
        <ele>1557.95</ele>
        <time>2020-12-23T08:50:44Z</time>
      </trkpt>
      <trkpt lat="44.83089" lon="5.45479">
        <ele>1557.95</ele>
        <time>2020-12-23T08:50:53Z</time>
      </trkpt>
      <trkpt lat="44.83085" lon="5.45479">
        <ele>1557.95</ele>
        <time>2020-12-23T08:50:56Z</time>
      </trkpt>
      <trkpt lat="44.83077" lon="5.45473">
        <ele>1556.51</ele>
        <time>2020-12-23T08:51:02Z</time>
      </trkpt>
      <trkpt lat="44.83059" lon="5.45455">
        <ele>1553.15</ele>
        <time>2020-12-23T08:51:18Z</time>
      </trkpt>
      <trkpt lat="44.83048" lon="5.45442">
        <ele>1551.22</ele>
        <time>2020-12-23T08:51:30Z</time>
      </trkpt>
      <trkpt lat="44.83033" lon="5.4543">
        <ele>1551.71</ele>
        <time>2020-12-23T08:51:44Z</time>
      </trkpt>
      <trkpt lat="44.83025" lon="5.45424">
        <ele>1550.74</ele>
        <time>2020-12-23T08:51:52Z</time>
      </trkpt>
      <trkpt lat="44.83021" lon="5.4542">
        <ele>1551.22</ele>
        <time>2020-12-23T08:52:07Z</time>
      </trkpt>
      <trkpt lat="44.83021" lon="5.4542">
        <ele>1552.19</ele>
        <time>2020-12-23T08:52:32Z</time>
      </trkpt>
      <trkpt lat="44.83021" lon="5.4542">
        <ele>1554.11</ele>
        <time>2020-12-23T08:52:38Z</time>
      </trkpt>
      <trkpt lat="44.83021" lon="5.4542">
        <ele>1553.15</ele>
        <time>2020-12-23T08:52:40Z</time>
      </trkpt>
      <trkpt lat="44.83021" lon="5.45422">
        <ele>1552.19</ele>
        <time>2020-12-23T08:52:53Z</time>
      </trkpt>
      <trkpt lat="44.83021" lon="5.45422">
        <ele>1551.71</ele>
        <time>2020-12-23T08:52:56Z</time>
      </trkpt>
      <trkpt lat="44.83009" lon="5.45406">
        <ele>1550.74</ele>
        <time>2020-12-23T08:53:05Z</time>
      </trkpt>
      <trkpt lat="44.83008" lon="5.45393">
        <ele>1549.78</ele>
        <time>2020-12-23T08:53:15Z</time>
      </trkpt>
      <trkpt lat="44.83007" lon="5.45374">
        <ele>1550.26</ele>
        <time>2020-12-23T08:53:27Z</time>
      </trkpt>
      <trkpt lat="44.83007" lon="5.45371">
        <ele>1548.82</ele>
        <time>2020-12-23T08:53:29Z</time>
      </trkpt>
      <trkpt lat="44.82998" lon="5.45345">
        <ele>1549.3</ele>
        <time>2020-12-23T08:53:41Z</time>
      </trkpt>
      <trkpt lat="44.82991" lon="5.45335">
        <ele>1548.34</ele>
        <time>2020-12-23T08:53:51Z</time>
      </trkpt>
      <trkpt lat="44.82985" lon="5.45322">
        <ele>1551.22</ele>
        <time>2020-12-23T08:54:00Z</time>
      </trkpt>
      <trkpt lat="44.82984" lon="5.45321">
        <ele>1551.22</ele>
        <time>2020-12-23T08:54:01Z</time>
      </trkpt>
      <trkpt lat="44.82977" lon="5.4531">
        <ele>1552.19</ele>
        <time>2020-12-23T08:54:09Z</time>
      </trkpt>
      <trkpt lat="44.82974" lon="5.45298">
        <ele>1551.71</ele>
        <time>2020-12-23T08:54:18Z</time>
      </trkpt>
      <trkpt lat="44.82972" lon="5.45291">
        <ele>1550.74</ele>
        <time>2020-12-23T08:54:22Z</time>
      </trkpt>
      <trkpt lat="44.82966" lon="5.45279">
        <ele>1554.11</ele>
        <time>2020-12-23T08:54:34Z</time>
      </trkpt>
      <trkpt lat="44.82962" lon="5.45275">
        <ele>1555.07</ele>
        <time>2020-12-23T08:54:39Z</time>
      </trkpt>
      <trkpt lat="44.8296" lon="5.45267">
        <ele>1555.07</ele>
        <time>2020-12-23T08:54:45Z</time>
      </trkpt>
      <trkpt lat="44.82959" lon="5.45261">
        <ele>1556.03</ele>
        <time>2020-12-23T08:54:51Z</time>
      </trkpt>
      <trkpt lat="44.8296" lon="5.45255">
        <ele>1556.99</ele>
        <time>2020-12-23T08:54:55Z</time>
      </trkpt>
      <trkpt lat="44.82961" lon="5.4525">
        <ele>1557.95</ele>
        <time>2020-12-23T08:54:58Z</time>
      </trkpt>
      <trkpt lat="44.82961" lon="5.45244">
        <ele>1557.95</ele>
        <time>2020-12-23T08:55:03Z</time>
      </trkpt>
      <trkpt lat="44.82964" lon="5.45236">
        <ele>1560.36</ele>
        <time>2020-12-23T08:55:10Z</time>
      </trkpt>
      <trkpt lat="44.82969" lon="5.45223">
        <ele>1562.76</ele>
        <time>2020-12-23T08:55:23Z</time>
      </trkpt>
      <trkpt lat="44.82971" lon="5.45215">
        <ele>1565.16</ele>
        <time>2020-12-23T08:55:31Z</time>
      </trkpt>
      <trkpt lat="44.82976" lon="5.45206">
        <ele>1566.61</ele>
        <time>2020-12-23T08:55:40Z</time>
      </trkpt>
      <trkpt lat="44.82983" lon="5.45197">
        <ele>1568.53</ele>
        <time>2020-12-23T08:55:54Z</time>
      </trkpt>
      <trkpt lat="44.82986" lon="5.45188">
        <ele>1571.41</ele>
        <time>2020-12-23T08:56:05Z</time>
      </trkpt>
      <trkpt lat="44.82994" lon="5.45179">
        <ele>1573.33</ele>
        <time>2020-12-23T08:56:18Z</time>
      </trkpt>
      <trkpt lat="44.82997" lon="5.45175">
        <ele>1573.33</ele>
        <time>2020-12-23T08:56:22Z</time>
      </trkpt>
      <trkpt lat="44.82999" lon="5.45171">
        <ele>1574.3</ele>
        <time>2020-12-23T08:56:26Z</time>
      </trkpt>
      <trkpt lat="44.83002" lon="5.45165">
        <ele>1575.74</ele>
        <time>2020-12-23T08:56:40Z</time>
      </trkpt>
      <trkpt lat="44.83004" lon="5.45162">
        <ele>1575.26</ele>
        <time>2020-12-23T08:56:44Z</time>
      </trkpt>
      <trkpt lat="44.83011" lon="5.45154">
        <ele>1576.7</ele>
        <time>2020-12-23T08:56:50Z</time>
      </trkpt>
      <trkpt lat="44.83022" lon="5.45143">
        <ele>1579.1</ele>
        <time>2020-12-23T08:57:04Z</time>
      </trkpt>
      <trkpt lat="44.83024" lon="5.45141">
        <ele>1579.58</ele>
        <time>2020-12-23T08:57:07Z</time>
      </trkpt>
      <trkpt lat="44.8303" lon="5.45127">
        <ele>1580.54</ele>
        <time>2020-12-23T08:57:19Z</time>
      </trkpt>
      <trkpt lat="44.83031" lon="5.45123">
        <ele>1581.03</ele>
        <time>2020-12-23T08:57:22Z</time>
      </trkpt>
      <trkpt lat="44.83034" lon="5.45119">
        <ele>1581.99</ele>
        <time>2020-12-23T08:57:26Z</time>
      </trkpt>
      <trkpt lat="44.83038" lon="5.45116">
        <ele>1583.43</ele>
        <time>2020-12-23T08:57:31Z</time>
      </trkpt>
      <trkpt lat="44.83041" lon="5.45111">
        <ele>1583.43</ele>
        <time>2020-12-23T08:57:35Z</time>
      </trkpt>
      <trkpt lat="44.83044" lon="5.45106">
        <ele>1582.95</ele>
        <time>2020-12-23T08:57:40Z</time>
      </trkpt>
      <trkpt lat="44.83049" lon="5.45092">
        <ele>1585.83</ele>
        <time>2020-12-23T08:57:53Z</time>
      </trkpt>
      <trkpt lat="44.8305" lon="5.4509">
        <ele>1587.27</ele>
        <time>2020-12-23T08:57:55Z</time>
      </trkpt>
      <trkpt lat="44.83057" lon="5.45076">
        <ele>1588.72</ele>
        <time>2020-12-23T08:58:08Z</time>
      </trkpt>
      <trkpt lat="44.8306" lon="5.45073">
        <ele>1589.2</ele>
        <time>2020-12-23T08:58:12Z</time>
      </trkpt>
      <trkpt lat="44.83067" lon="5.45059">
        <ele>1591.12</ele>
        <time>2020-12-23T08:58:25Z</time>
      </trkpt>
      <trkpt lat="44.83068" lon="5.45058">
        <ele>1591.12</ele>
        <time>2020-12-23T08:58:26Z</time>
      </trkpt>
      <trkpt lat="44.83072" lon="5.4505">
        <ele>1593.04</ele>
        <time>2020-12-23T08:58:41Z</time>
      </trkpt>
      <trkpt lat="44.83076" lon="5.45043">
        <ele>1593.04</ele>
        <time>2020-12-23T08:58:47Z</time>
      </trkpt>
      <trkpt lat="44.83079" lon="5.45038">
        <ele>1593.52</ele>
        <time>2020-12-23T08:58:51Z</time>
      </trkpt>
      <trkpt lat="44.83087" lon="5.45025">
        <ele>1593.52</ele>
        <time>2020-12-23T08:59:03Z</time>
      </trkpt>
      <trkpt lat="44.83092" lon="5.45016">
        <ele>1594</ele>
        <time>2020-12-23T08:59:10Z</time>
      </trkpt>
      <trkpt lat="44.83095" lon="5.4501">
        <ele>1594.48</ele>
        <time>2020-12-23T08:59:15Z</time>
      </trkpt>
      <trkpt lat="44.831" lon="5.44998">
        <ele>1595.45</ele>
        <time>2020-12-23T08:59:26Z</time>
      </trkpt>
      <trkpt lat="44.83104" lon="5.44989">
        <ele>1595.45</ele>
        <time>2020-12-23T08:59:34Z</time>
      </trkpt>
      <trkpt lat="44.83106" lon="5.44985">
        <ele>1597.37</ele>
        <time>2020-12-23T08:59:38Z</time>
      </trkpt>
      <trkpt lat="44.83107" lon="5.44985">
        <ele>1598.33</ele>
        <time>2020-12-23T08:59:39Z</time>
      </trkpt>
      <trkpt lat="44.83108" lon="5.44979">
        <ele>1597.85</ele>
        <time>2020-12-23T08:59:45Z</time>
      </trkpt>
      <trkpt lat="44.83109" lon="5.44974">
        <ele>1598.81</ele>
        <time>2020-12-23T08:59:49Z</time>
      </trkpt>
      <trkpt lat="44.83111" lon="5.44969">
        <ele>1597.85</ele>
        <time>2020-12-23T08:59:54Z</time>
      </trkpt>
      <trkpt lat="44.83114" lon="5.44961">
        <ele>1599.77</ele>
        <time>2020-12-23T09:00:02Z</time>
      </trkpt>
      <trkpt lat="44.83116" lon="5.44952">
        <ele>1599.77</ele>
        <time>2020-12-23T09:00:09Z</time>
      </trkpt>
      <trkpt lat="44.83118" lon="5.44944">
        <ele>1600.25</ele>
        <time>2020-12-23T09:00:15Z</time>
      </trkpt>
      <trkpt lat="44.8312" lon="5.44937">
        <ele>1600.25</ele>
        <time>2020-12-23T09:00:21Z</time>
      </trkpt>
      <trkpt lat="44.83121" lon="5.44926">
        <ele>1600.25</ele>
        <time>2020-12-23T09:00:28Z</time>
      </trkpt>
      <trkpt lat="44.83123" lon="5.44918">
        <ele>1599.29</ele>
        <time>2020-12-23T09:00:32Z</time>
      </trkpt>
      <trkpt lat="44.83125" lon="5.44913">
        <ele>1601.21</ele>
        <time>2020-12-23T09:00:36Z</time>
      </trkpt>
      <trkpt lat="44.83126" lon="5.44901">
        <ele>1601.69</ele>
        <time>2020-12-23T09:00:43Z</time>
      </trkpt>
      <trkpt lat="44.83126" lon="5.44897">
        <ele>1601.21</ele>
        <time>2020-12-23T09:00:46Z</time>
      </trkpt>
      <trkpt lat="44.83129" lon="5.4488">
        <ele>1601.69</ele>
        <time>2020-12-23T09:00:58Z</time>
      </trkpt>
      <trkpt lat="44.83131" lon="5.44871">
        <ele>1601.69</ele>
        <time>2020-12-23T09:01:05Z</time>
      </trkpt>
      <trkpt lat="44.83132" lon="5.4486">
        <ele>1601.69</ele>
        <time>2020-12-23T09:01:12Z</time>
      </trkpt>
      <trkpt lat="44.83134" lon="5.44852">
        <ele>1602.66</ele>
        <time>2020-12-23T09:01:18Z</time>
      </trkpt>
      <trkpt lat="44.83135" lon="5.4483">
        <ele>1603.62</ele>
        <time>2020-12-23T09:01:32Z</time>
      </trkpt>
      <trkpt lat="44.83139" lon="5.44818">
        <ele>1604.1</ele>
        <time>2020-12-23T09:01:39Z</time>
      </trkpt>
      <trkpt lat="44.83139" lon="5.44815">
        <ele>1604.1</ele>
        <time>2020-12-23T09:01:41Z</time>
      </trkpt>
      <trkpt lat="44.8314" lon="5.4481">
        <ele>1604.58</ele>
        <time>2020-12-23T09:01:47Z</time>
      </trkpt>
      <trkpt lat="44.83149" lon="5.44798">
        <ele>1606.5</ele>
        <time>2020-12-23T09:02:00Z</time>
      </trkpt>
      <trkpt lat="44.83154" lon="5.44789">
        <ele>1608.42</ele>
        <time>2020-12-23T09:02:11Z</time>
      </trkpt>
      <trkpt lat="44.83158" lon="5.44778">
        <ele>1610.35</ele>
        <time>2020-12-23T09:02:23Z</time>
      </trkpt>
      <trkpt lat="44.83159" lon="5.44771">
        <ele>1611.31</ele>
        <time>2020-12-23T09:02:30Z</time>
      </trkpt>
      <trkpt lat="44.8316" lon="5.44765">
        <ele>1611.79</ele>
        <time>2020-12-23T09:02:35Z</time>
      </trkpt>
      <trkpt lat="44.83162" lon="5.44754">
        <ele>1612.75</ele>
        <time>2020-12-23T09:02:43Z</time>
      </trkpt>
      <trkpt lat="44.83163" lon="5.44748">
        <ele>1613.23</ele>
        <time>2020-12-23T09:02:48Z</time>
      </trkpt>
      <trkpt lat="44.83165" lon="5.44739">
        <ele>1613.23</ele>
        <time>2020-12-23T09:03:04Z</time>
      </trkpt>
      <trkpt lat="44.83165" lon="5.44739">
        <ele>1612.75</ele>
        <time>2020-12-23T09:03:32Z</time>
      </trkpt>
      <trkpt lat="44.83165" lon="5.4474">
        <ele>1612.75</ele>
        <time>2020-12-23T09:04:02Z</time>
      </trkpt>
      <trkpt lat="44.83165" lon="5.4474">
        <ele>1611.79</ele>
        <time>2020-12-23T09:04:27Z</time>
      </trkpt>
      <trkpt lat="44.83168" lon="5.44732">
        <ele>1612.27</ele>
        <time>2020-12-23T09:04:34Z</time>
      </trkpt>
      <trkpt lat="44.83169" lon="5.44729">
        <ele>1612.75</ele>
        <time>2020-12-23T09:04:36Z</time>
      </trkpt>
      <trkpt lat="44.83179" lon="5.44706">
        <ele>1612.27</ele>
        <time>2020-12-23T09:04:51Z</time>
      </trkpt>
      <trkpt lat="44.8318" lon="5.44704">
        <ele>1611.79</ele>
        <time>2020-12-23T09:04:57Z</time>
      </trkpt>
      <trkpt lat="44.83182" lon="5.44694">
        <ele>1612.27</ele>
        <time>2020-12-23T09:05:04Z</time>
      </trkpt>
      <trkpt lat="44.83184" lon="5.44685">
        <ele>1611.79</ele>
        <time>2020-12-23T09:05:10Z</time>
      </trkpt>
      <trkpt lat="44.83187" lon="5.44673">
        <ele>1611.79</ele>
        <time>2020-12-23T09:05:17Z</time>
      </trkpt>
      <trkpt lat="44.83189" lon="5.44652">
        <ele>1611.31</ele>
        <time>2020-12-23T09:05:30Z</time>
      </trkpt>
      <trkpt lat="44.83194" lon="5.44632">
        <ele>1609.86</ele>
        <time>2020-12-23T09:05:42Z</time>
      </trkpt>
      <trkpt lat="44.83196" lon="5.44628">
        <ele>1610.35</ele>
        <time>2020-12-23T09:05:45Z</time>
      </trkpt>
      <trkpt lat="44.83195" lon="5.44612">
        <ele>1610.35</ele>
        <time>2020-12-23T09:05:57Z</time>
      </trkpt>
      <trkpt lat="44.83193" lon="5.44601">
        <ele>1611.79</ele>
        <time>2020-12-23T09:06:07Z</time>
      </trkpt>
      <trkpt lat="44.83195" lon="5.44593">
        <ele>1612.27</ele>
        <time>2020-12-23T09:06:12Z</time>
      </trkpt>
      <trkpt lat="44.83192" lon="5.44586">
        <ele>1612.75</ele>
        <time>2020-12-23T09:06:19Z</time>
      </trkpt>
      <trkpt lat="44.83191" lon="5.44575">
        <ele>1614.67</ele>
        <time>2020-12-23T09:06:29Z</time>
      </trkpt>
      <trkpt lat="44.83189" lon="5.44569">
        <ele>1615.15</ele>
        <time>2020-12-23T09:06:34Z</time>
      </trkpt>
      <trkpt lat="44.83187" lon="5.4456">
        <ele>1616.59</ele>
        <time>2020-12-23T09:06:43Z</time>
      </trkpt>
      <trkpt lat="44.83186" lon="5.44551">
        <ele>1618.52</ele>
        <time>2020-12-23T09:06:56Z</time>
      </trkpt>
      <trkpt lat="44.83186" lon="5.44551">
        <ele>1618.52</ele>
        <time>2020-12-23T09:07:24Z</time>
      </trkpt>
      <trkpt lat="44.83186" lon="5.44551">
        <ele>1618.52</ele>
        <time>2020-12-23T09:07:50Z</time>
      </trkpt>
      <trkpt lat="44.83189" lon="5.44543">
        <ele>1619.48</ele>
        <time>2020-12-23T09:07:56Z</time>
      </trkpt>
      <trkpt lat="44.83191" lon="5.44533">
        <ele>1619.96</ele>
        <time>2020-12-23T09:08:03Z</time>
      </trkpt>
      <trkpt lat="44.83192" lon="5.44525">
        <ele>1620.44</ele>
        <time>2020-12-23T09:08:11Z</time>
      </trkpt>
      <trkpt lat="44.83193" lon="5.44521">
        <ele>1620.92</ele>
        <time>2020-12-23T09:08:16Z</time>
      </trkpt>
      <trkpt lat="44.83195" lon="5.44513">
        <ele>1622.36</ele>
        <time>2020-12-23T09:08:23Z</time>
      </trkpt>
      <trkpt lat="44.83196" lon="5.44505">
        <ele>1623.32</ele>
        <time>2020-12-23T09:08:29Z</time>
      </trkpt>
      <trkpt lat="44.83196" lon="5.44498">
        <ele>1624.28</ele>
        <time>2020-12-23T09:08:34Z</time>
      </trkpt>
      <trkpt lat="44.83195" lon="5.44489">
        <ele>1624.28</ele>
        <time>2020-12-23T09:08:40Z</time>
      </trkpt>
      <trkpt lat="44.83196" lon="5.44481">
        <ele>1624.77</ele>
        <time>2020-12-23T09:08:46Z</time>
      </trkpt>
      <trkpt lat="44.83196" lon="5.44471">
        <ele>1625.73</ele>
        <time>2020-12-23T09:08:53Z</time>
      </trkpt>
      <trkpt lat="44.83199" lon="5.44462">
        <ele>1626.21</ele>
        <time>2020-12-23T09:08:59Z</time>
      </trkpt>
      <trkpt lat="44.83198" lon="5.44455">
        <ele>1626.69</ele>
        <time>2020-12-23T09:09:03Z</time>
      </trkpt>
      <trkpt lat="44.83202" lon="5.44429">
        <ele>1627.65</ele>
        <time>2020-12-23T09:09:16Z</time>
      </trkpt>
      <trkpt lat="44.83204" lon="5.44414">
        <ele>1627.65</ele>
        <time>2020-12-23T09:09:25Z</time>
      </trkpt>
      <trkpt lat="44.83202" lon="5.44404">
        <ele>1627.65</ele>
        <time>2020-12-23T09:09:32Z</time>
      </trkpt>
      <trkpt lat="44.83201" lon="5.44401">
        <ele>1628.13</ele>
        <time>2020-12-23T09:09:34Z</time>
      </trkpt>
      <trkpt lat="44.83198" lon="5.44392">
        <ele>1628.13</ele>
        <time>2020-12-23T09:09:40Z</time>
      </trkpt>
      <trkpt lat="44.83198" lon="5.44387">
        <ele>1628.13</ele>
        <time>2020-12-23T09:09:43Z</time>
      </trkpt>
      <trkpt lat="44.83197" lon="5.44378">
        <ele>1628.61</ele>
        <time>2020-12-23T09:09:50Z</time>
      </trkpt>
      <trkpt lat="44.83196" lon="5.44375">
        <ele>1629.09</ele>
        <time>2020-12-23T09:09:52Z</time>
      </trkpt>
      <trkpt lat="44.83194" lon="5.44367">
        <ele>1629.57</ele>
        <time>2020-12-23T09:09:58Z</time>
      </trkpt>
      <trkpt lat="44.83193" lon="5.44359">
        <ele>1630.05</ele>
        <time>2020-12-23T09:10:04Z</time>
      </trkpt>
      <trkpt lat="44.8319" lon="5.4434">
        <ele>1630.53</ele>
        <time>2020-12-23T09:10:16Z</time>
      </trkpt>
      <trkpt lat="44.83188" lon="5.44333">
        <ele>1630.53</ele>
        <time>2020-12-23T09:10:21Z</time>
      </trkpt>
      <trkpt lat="44.83191" lon="5.44316">
        <ele>1627.17</ele>
        <time>2020-12-23T09:10:31Z</time>
      </trkpt>
      <trkpt lat="44.83189" lon="5.44308">
        <ele>1625.73</ele>
        <time>2020-12-23T09:10:36Z</time>
      </trkpt>
      <trkpt lat="44.83188" lon="5.44283">
        <ele>1625.25</ele>
        <time>2020-12-23T09:10:48Z</time>
      </trkpt>
      <trkpt lat="44.83189" lon="5.44276">
        <ele>1622.84</ele>
        <time>2020-12-23T09:10:52Z</time>
      </trkpt>
      <trkpt lat="44.8319" lon="5.44272">
        <ele>1621.88</ele>
        <time>2020-12-23T09:10:56Z</time>
      </trkpt>
      <trkpt lat="44.83195" lon="5.44251">
        <ele>1621.4</ele>
        <time>2020-12-23T09:11:09Z</time>
      </trkpt>
      <trkpt lat="44.83198" lon="5.4423">
        <ele>1620.92</ele>
        <time>2020-12-23T09:11:23Z</time>
      </trkpt>
      <trkpt lat="44.83198" lon="5.44229">
        <ele>1621.4</ele>
        <time>2020-12-23T09:11:24Z</time>
      </trkpt>
      <trkpt lat="44.83199" lon="5.44222">
        <ele>1621.4</ele>
        <time>2020-12-23T09:11:29Z</time>
      </trkpt>
      <trkpt lat="44.83201" lon="5.44217">
        <ele>1621.4</ele>
        <time>2020-12-23T09:11:34Z</time>
      </trkpt>
      <trkpt lat="44.83207" lon="5.44206">
        <ele>1621.4</ele>
        <time>2020-12-23T09:11:41Z</time>
      </trkpt>
      <trkpt lat="44.83206" lon="5.44203">
        <ele>1620.92</ele>
        <time>2020-12-23T09:11:43Z</time>
      </trkpt>
      <trkpt lat="44.83207" lon="5.44193">
        <ele>1624.28</ele>
        <time>2020-12-23T09:11:50Z</time>
      </trkpt>
      <trkpt lat="44.83208" lon="5.44186">
        <ele>1622.84</ele>
        <time>2020-12-23T09:11:57Z</time>
      </trkpt>
      <trkpt lat="44.83214" lon="5.44176">
        <ele>1623.8</ele>
        <time>2020-12-23T09:12:06Z</time>
      </trkpt>
      <trkpt lat="44.83219" lon="5.44163">
        <ele>1625.73</ele>
        <time>2020-12-23T09:12:19Z</time>
      </trkpt>
      <trkpt lat="44.83222" lon="5.44157">
        <ele>1626.69</ele>
        <time>2020-12-23T09:12:23Z</time>
      </trkpt>
      <trkpt lat="44.83223" lon="5.44153">
        <ele>1627.17</ele>
        <time>2020-12-23T09:12:28Z</time>
      </trkpt>
      <trkpt lat="44.83222" lon="5.44139">
        <ele>1630.05</ele>
        <time>2020-12-23T09:12:40Z</time>
      </trkpt>
      <trkpt lat="44.83224" lon="5.44125">
        <ele>1631.98</ele>
        <time>2020-12-23T09:12:51Z</time>
      </trkpt>
      <trkpt lat="44.83225" lon="5.44119">
        <ele>1631.98</ele>
        <time>2020-12-23T09:12:54Z</time>
      </trkpt>
      <trkpt lat="44.83225" lon="5.44104">
        <ele>1633.9</ele>
        <time>2020-12-23T09:13:04Z</time>
      </trkpt>
      <trkpt lat="44.83224" lon="5.44097">
        <ele>1634.86</ele>
        <time>2020-12-23T09:13:09Z</time>
      </trkpt>
      <trkpt lat="44.83224" lon="5.44083">
        <ele>1636.78</ele>
        <time>2020-12-23T09:13:17Z</time>
      </trkpt>
      <trkpt lat="44.83222" lon="5.44069">
        <ele>1636.78</ele>
        <time>2020-12-23T09:13:25Z</time>
      </trkpt>
      <trkpt lat="44.83223" lon="5.44052">
        <ele>1637.26</ele>
        <time>2020-12-23T09:13:35Z</time>
      </trkpt>
      <trkpt lat="44.83223" lon="5.4403">
        <ele>1638.22</ele>
        <time>2020-12-23T09:13:47Z</time>
      </trkpt>
      <trkpt lat="44.83224" lon="5.44019">
        <ele>1637.74</ele>
        <time>2020-12-23T09:13:52Z</time>
      </trkpt>
      <trkpt lat="44.83223" lon="5.44008">
        <ele>1637.26</ele>
        <time>2020-12-23T09:13:56Z</time>
      </trkpt>
      <trkpt lat="44.83222" lon="5.43994">
        <ele>1636.78</ele>
        <time>2020-12-23T09:14:04Z</time>
      </trkpt>
      <trkpt lat="44.83224" lon="5.43973">
        <ele>1636.78</ele>
        <time>2020-12-23T09:14:14Z</time>
      </trkpt>
      <trkpt lat="44.83223" lon="5.43966">
        <ele>1638.22</ele>
        <time>2020-12-23T09:14:17Z</time>
      </trkpt>
      <trkpt lat="44.8322" lon="5.43951">
        <ele>1637.74</ele>
        <time>2020-12-23T09:14:28Z</time>
      </trkpt>
      <trkpt lat="44.83215" lon="5.43936">
        <ele>1637.26</ele>
        <time>2020-12-23T09:14:37Z</time>
      </trkpt>
      <trkpt lat="44.83215" lon="5.43922">
        <ele>1637.74</ele>
        <time>2020-12-23T09:14:43Z</time>
      </trkpt>
      <trkpt lat="44.8321" lon="5.43909">
        <ele>1639.19</ele>
        <time>2020-12-23T09:14:50Z</time>
      </trkpt>
      <trkpt lat="44.83198" lon="5.43898">
        <ele>1638.7</ele>
        <time>2020-12-23T09:15:02Z</time>
      </trkpt>
      <trkpt lat="44.8319" lon="5.43898">
        <ele>1639.67</ele>
        <time>2020-12-23T09:15:10Z</time>
      </trkpt>
      <trkpt lat="44.83182" lon="5.43897">
        <ele>1641.11</ele>
        <time>2020-12-23T09:15:18Z</time>
      </trkpt>
      <trkpt lat="44.83169" lon="5.4391">
        <ele>1642.55</ele>
        <time>2020-12-23T09:15:31Z</time>
      </trkpt>
      <trkpt lat="44.83161" lon="5.43926">
        <ele>1645.43</ele>
        <time>2020-12-23T09:15:43Z</time>
      </trkpt>
      <trkpt lat="44.83154" lon="5.43939">
        <ele>1645.91</ele>
        <time>2020-12-23T09:15:53Z</time>
      </trkpt>
      <trkpt lat="44.8315" lon="5.43943">
        <ele>1647.36</ele>
        <time>2020-12-23T09:15:57Z</time>
      </trkpt>
      <trkpt lat="44.83144" lon="5.43948">
        <ele>1649.76</ele>
        <time>2020-12-23T09:16:04Z</time>
      </trkpt>
      <trkpt lat="44.83135" lon="5.43949">
        <ele>1648.32</ele>
        <time>2020-12-23T09:16:12Z</time>
      </trkpt>
      <trkpt lat="44.83133" lon="5.4395">
        <ele>1649.28</ele>
        <time>2020-12-23T09:16:14Z</time>
      </trkpt>
      <trkpt lat="44.83121" lon="5.43938">
        <ele>1649.76</ele>
        <time>2020-12-23T09:16:26Z</time>
      </trkpt>
      <trkpt lat="44.83116" lon="5.43927">
        <ele>1652.64</ele>
        <time>2020-12-23T09:16:34Z</time>
      </trkpt>
      <trkpt lat="44.83114" lon="5.43923">
        <ele>1652.16</ele>
        <time>2020-12-23T09:16:38Z</time>
      </trkpt>
      <trkpt lat="44.83109" lon="5.43916">
        <ele>1652.64</ele>
        <time>2020-12-23T09:16:44Z</time>
      </trkpt>
      <trkpt lat="44.83106" lon="5.4391">
        <ele>1654.09</ele>
        <time>2020-12-23T09:16:49Z</time>
      </trkpt>
      <trkpt lat="44.83102" lon="5.43906">
        <ele>1654.09</ele>
        <time>2020-12-23T09:16:55Z</time>
      </trkpt>
      <trkpt lat="44.83099" lon="5.43903">
        <ele>1656.01</ele>
        <time>2020-12-23T09:16:59Z</time>
      </trkpt>
      <trkpt lat="44.83097" lon="5.43901">
        <ele>1657.93</ele>
        <time>2020-12-23T09:17:02Z</time>
      </trkpt>
      <trkpt lat="44.83092" lon="5.43899">
        <ele>1657.93</ele>
        <time>2020-12-23T09:17:06Z</time>
      </trkpt>
      <trkpt lat="44.83089" lon="5.43895">
        <ele>1659.37</ele>
        <time>2020-12-23T09:17:11Z</time>
      </trkpt>
      <trkpt lat="44.83086" lon="5.43891">
        <ele>1660.81</ele>
        <time>2020-12-23T09:17:16Z</time>
      </trkpt>
      <trkpt lat="44.83082" lon="5.43886">
        <ele>1661.3</ele>
        <time>2020-12-23T09:17:21Z</time>
      </trkpt>
      <trkpt lat="44.8308" lon="5.43884">
        <ele>1660.33</ele>
        <time>2020-12-23T09:17:23Z</time>
      </trkpt>
      <trkpt lat="44.83073" lon="5.43876">
        <ele>1662.74</ele>
        <time>2020-12-23T09:17:35Z</time>
      </trkpt>
      <trkpt lat="44.8307" lon="5.43872">
        <ele>1663.7</ele>
        <time>2020-12-23T09:17:41Z</time>
      </trkpt>
      <trkpt lat="44.83063" lon="5.43862">
        <ele>1666.1</ele>
        <time>2020-12-23T09:17:53Z</time>
      </trkpt>
      <trkpt lat="44.8306" lon="5.43859">
        <ele>1666.58</ele>
        <time>2020-12-23T09:17:57Z</time>
      </trkpt>
      <trkpt lat="44.83056" lon="5.43855">
        <ele>1668.02</ele>
        <time>2020-12-23T09:18:12Z</time>
      </trkpt>
      <trkpt lat="44.83054" lon="5.43852">
        <ele>1670.43</ele>
        <time>2020-12-23T09:18:25Z</time>
      </trkpt>
      <trkpt lat="44.83052" lon="5.43847">
        <ele>1669.47</ele>
        <time>2020-12-23T09:18:29Z</time>
      </trkpt>
      <trkpt lat="44.83044" lon="5.43836">
        <ele>1670.43</ele>
        <time>2020-12-23T09:18:39Z</time>
      </trkpt>
      <trkpt lat="44.83035" lon="5.43823">
        <ele>1673.79</ele>
        <time>2020-12-23T09:18:50Z</time>
      </trkpt>
      <trkpt lat="44.83029" lon="5.43813">
        <ele>1673.79</ele>
        <time>2020-12-23T09:19:03Z</time>
      </trkpt>
      <trkpt lat="44.83029" lon="5.43813">
        <ele>1674.27</ele>
        <time>2020-12-23T09:19:29Z</time>
      </trkpt>
      <trkpt lat="44.83029" lon="5.43814">
        <ele>1677.16</ele>
        <time>2020-12-23T09:19:42Z</time>
      </trkpt>
      <trkpt lat="44.83024" lon="5.43806">
        <ele>1674.27</ele>
        <time>2020-12-23T09:19:48Z</time>
      </trkpt>
      <trkpt lat="44.83017" lon="5.4379">
        <ele>1677.64</ele>
        <time>2020-12-23T09:19:58Z</time>
      </trkpt>
      <trkpt lat="44.83016" lon="5.43789">
        <ele>1677.16</ele>
        <time>2020-12-23T09:19:59Z</time>
      </trkpt>
      <trkpt lat="44.83005" lon="5.43777">
        <ele>1676.2</ele>
        <time>2020-12-23T09:20:11Z</time>
      </trkpt>
      <trkpt lat="44.83005" lon="5.43776">
        <ele>1675.72</ele>
        <time>2020-12-23T09:20:12Z</time>
      </trkpt>
      <trkpt lat="44.83" lon="5.43773">
        <ele>1675.23</ele>
        <time>2020-12-23T09:20:17Z</time>
      </trkpt>
      <trkpt lat="44.82991" lon="5.43767">
        <ele>1677.16</ele>
        <time>2020-12-23T09:20:27Z</time>
      </trkpt>
      <trkpt lat="44.82986" lon="5.43765">
        <ele>1677.64</ele>
        <time>2020-12-23T09:20:34Z</time>
      </trkpt>
      <trkpt lat="44.82984" lon="5.43765">
        <ele>1678.6</ele>
        <time>2020-12-23T09:20:38Z</time>
      </trkpt>
      <trkpt lat="44.82984" lon="5.43765">
        <ele>1678.6</ele>
        <time>2020-12-23T09:20:40Z</time>
      </trkpt>
      <trkpt lat="44.82976" lon="5.43763">
        <ele>1680.52</ele>
        <time>2020-12-23T09:20:49Z</time>
      </trkpt>
      <trkpt lat="44.82973" lon="5.43762">
        <ele>1680.04</ele>
        <time>2020-12-23T09:20:52Z</time>
      </trkpt>
      <trkpt lat="44.8297" lon="5.43762">
        <ele>1682.44</ele>
        <time>2020-12-23T09:21:00Z</time>
      </trkpt>
      <trkpt lat="44.8297" lon="5.43762">
        <ele>1681.96</ele>
        <time>2020-12-23T09:21:01Z</time>
      </trkpt>
      <trkpt lat="44.82962" lon="5.43762">
        <ele>1683.89</ele>
        <time>2020-12-23T09:21:13Z</time>
      </trkpt>
      <trkpt lat="44.82956" lon="5.43762">
        <ele>1683.89</ele>
        <time>2020-12-23T09:21:19Z</time>
      </trkpt>
      <trkpt lat="44.82949" lon="5.43762">
        <ele>1686.77</ele>
        <time>2020-12-23T09:21:30Z</time>
      </trkpt>
      <trkpt lat="44.82948" lon="5.43762">
        <ele>1686.77</ele>
        <time>2020-12-23T09:21:32Z</time>
      </trkpt>
      <trkpt lat="44.82939" lon="5.43762">
        <ele>1688.21</ele>
        <time>2020-12-23T09:21:40Z</time>
      </trkpt>
      <trkpt lat="44.82927" lon="5.4376">
        <ele>1692.54</ele>
        <time>2020-12-23T09:21:50Z</time>
      </trkpt>
      <trkpt lat="44.82926" lon="5.43759">
        <ele>1692.54</ele>
        <time>2020-12-23T09:21:51Z</time>
      </trkpt>
      <trkpt lat="44.82921" lon="5.43757">
        <ele>1690.62</ele>
        <time>2020-12-23T09:21:57Z</time>
      </trkpt>
      <trkpt lat="44.82913" lon="5.43753">
        <ele>1692.06</ele>
        <time>2020-12-23T09:22:05Z</time>
      </trkpt>
      <trkpt lat="44.82908" lon="5.43747">
        <ele>1693.98</ele>
        <time>2020-12-23T09:22:10Z</time>
      </trkpt>
      <trkpt lat="44.82905" lon="5.43746">
        <ele>1692.54</ele>
        <time>2020-12-23T09:22:13Z</time>
      </trkpt>
      <trkpt lat="44.82899" lon="5.43744">
        <ele>1693.5</ele>
        <time>2020-12-23T09:22:19Z</time>
      </trkpt>
      <trkpt lat="44.82892" lon="5.43744">
        <ele>1695.42</ele>
        <time>2020-12-23T09:22:29Z</time>
      </trkpt>
      <trkpt lat="44.8288" lon="5.43747">
        <ele>1697.83</ele>
        <time>2020-12-23T09:22:40Z</time>
      </trkpt>
      <trkpt lat="44.82877" lon="5.43747">
        <ele>1698.31</ele>
        <time>2020-12-23T09:22:43Z</time>
      </trkpt>
      <trkpt lat="44.82868" lon="5.43748">
        <ele>1701.19</ele>
        <time>2020-12-23T09:22:51Z</time>
      </trkpt>
      <trkpt lat="44.8286" lon="5.43749">
        <ele>1701.67</ele>
        <time>2020-12-23T09:22:56Z</time>
      </trkpt>
      <trkpt lat="44.82853" lon="5.43752">
        <ele>1701.19</ele>
        <time>2020-12-23T09:23:04Z</time>
      </trkpt>
      <trkpt lat="44.8285" lon="5.43753">
        <ele>1701.19</ele>
        <time>2020-12-23T09:23:06Z</time>
      </trkpt>
      <trkpt lat="44.82833" lon="5.43765">
        <ele>1699.75</ele>
        <time>2020-12-23T09:23:18Z</time>
      </trkpt>
      <trkpt lat="44.82827" lon="5.4377">
        <ele>1699.27</ele>
        <time>2020-12-23T09:23:25Z</time>
      </trkpt>
      <trkpt lat="44.82818" lon="5.43776">
        <ele>1698.31</ele>
        <time>2020-12-23T09:23:34Z</time>
      </trkpt>
      <trkpt lat="44.82808" lon="5.4378">
        <ele>1700.71</ele>
        <time>2020-12-23T09:23:44Z</time>
      </trkpt>
      <trkpt lat="44.82796" lon="5.43791">
        <ele>1701.19</ele>
        <time>2020-12-23T09:23:56Z</time>
      </trkpt>
      <trkpt lat="44.82792" lon="5.43793">
        <ele>1700.71</ele>
        <time>2020-12-23T09:24:09Z</time>
      </trkpt>
      <trkpt lat="44.82791" lon="5.43793">
        <ele>1700.71</ele>
        <time>2020-12-23T09:24:26Z</time>
      </trkpt>
      <trkpt lat="44.82791" lon="5.43793">
        <ele>1700.71</ele>
        <time>2020-12-23T09:24:50Z</time>
      </trkpt>
      <trkpt lat="44.82791" lon="5.43793">
        <ele>1703.11</ele>
        <time>2020-12-23T09:25:15Z</time>
      </trkpt>
      <trkpt lat="44.82791" lon="5.43793">
        <ele>1702.15</ele>
        <time>2020-12-23T09:25:41Z</time>
      </trkpt>
      <trkpt lat="44.82791" lon="5.43793">
        <ele>1704.55</ele>
        <time>2020-12-23T09:26:07Z</time>
      </trkpt>
      <trkpt lat="44.82791" lon="5.43793">
        <ele>1704.55</ele>
        <time>2020-12-23T09:26:08Z</time>
      </trkpt>
      <trkpt lat="44.82791" lon="5.43793">
        <ele>1701.67</ele>
        <time>2020-12-23T09:26:26Z</time>
      </trkpt>
      <trkpt lat="44.82791" lon="5.43793">
        <ele>1704.55</ele>
        <time>2020-12-23T09:26:35Z</time>
      </trkpt>
      <trkpt lat="44.82791" lon="5.43793">
        <ele>1702.63</ele>
        <time>2020-12-23T09:26:38Z</time>
      </trkpt>
      <trkpt lat="44.82791" lon="5.43793">
        <ele>1704.55</ele>
        <time>2020-12-23T09:26:40Z</time>
      </trkpt>
      <trkpt lat="44.82791" lon="5.43794">
        <ele>1703.11</ele>
        <time>2020-12-23T09:27:05Z</time>
      </trkpt>
      <trkpt lat="44.82791" lon="5.43794">
        <ele>1702.63</ele>
        <time>2020-12-23T09:27:30Z</time>
      </trkpt>
      <trkpt lat="44.82791" lon="5.43794">
        <ele>1703.59</ele>
        <time>2020-12-23T09:27:59Z</time>
      </trkpt>
      <trkpt lat="44.82792" lon="5.43795">
        <ele>1703.11</ele>
        <time>2020-12-23T09:28:23Z</time>
      </trkpt>
      <trkpt lat="44.82792" lon="5.43795">
        <ele>1703.11</ele>
        <time>2020-12-23T09:28:51Z</time>
      </trkpt>
      <trkpt lat="44.82792" lon="5.43795">
        <ele>1702.63</ele>
        <time>2020-12-23T09:29:10Z</time>
      </trkpt>
      <trkpt lat="44.82801" lon="5.43786">
        <ele>1702.63</ele>
        <time>2020-12-23T09:29:19Z</time>
      </trkpt>
      <trkpt lat="44.82803" lon="5.43783">
        <ele>1702.63</ele>
        <time>2020-12-23T09:29:21Z</time>
      </trkpt>
      <trkpt lat="44.82808" lon="5.43771">
        <ele>1703.59</ele>
        <time>2020-12-23T09:29:32Z</time>
      </trkpt>
      <trkpt lat="44.82809" lon="5.43768">
        <ele>1703.59</ele>
        <time>2020-12-23T09:29:34Z</time>
      </trkpt>
      <trkpt lat="44.82812" lon="5.4376">
        <ele>1706.48</ele>
        <time>2020-12-23T09:29:39Z</time>
      </trkpt>
      <trkpt lat="44.82812" lon="5.43758">
        <ele>1705.04</ele>
        <time>2020-12-23T09:29:41Z</time>
      </trkpt>
      <trkpt lat="44.82817" lon="5.43742">
        <ele>1705.04</ele>
        <time>2020-12-23T09:29:51Z</time>
      </trkpt>
      <trkpt lat="44.8282" lon="5.43738">
        <ele>1706.96</ele>
        <time>2020-12-23T09:29:54Z</time>
      </trkpt>
      <trkpt lat="44.82823" lon="5.43734">
        <ele>1707.44</ele>
        <time>2020-12-23T09:29:59Z</time>
      </trkpt>
      <trkpt lat="44.82824" lon="5.43734">
        <ele>1706.48</ele>
        <time>2020-12-23T09:30:01Z</time>
      </trkpt>
      <trkpt lat="44.8283" lon="5.43733">
        <ele>1707.44</ele>
        <time>2020-12-23T09:30:05Z</time>
      </trkpt>
      <trkpt lat="44.82845" lon="5.43723">
        <ele>1707.44</ele>
        <time>2020-12-23T09:30:20Z</time>
      </trkpt>
      <trkpt lat="44.82856" lon="5.43709">
        <ele>1706.48</ele>
        <time>2020-12-23T09:30:33Z</time>
      </trkpt>
      <trkpt lat="44.82857" lon="5.43706">
        <ele>1706</ele>
        <time>2020-12-23T09:30:35Z</time>
      </trkpt>
      <trkpt lat="44.82859" lon="5.43704">
        <ele>1704.55</ele>
        <time>2020-12-23T09:30:38Z</time>
      </trkpt>
      <trkpt lat="44.82868" lon="5.43691">
        <ele>1704.07</ele>
        <time>2020-12-23T09:30:48Z</time>
      </trkpt>
      <trkpt lat="44.82869" lon="5.43689">
        <ele>1704.07</ele>
        <time>2020-12-23T09:30:49Z</time>
      </trkpt>
      <trkpt lat="44.82871" lon="5.4368">
        <ele>1705.04</ele>
        <time>2020-12-23T09:30:56Z</time>
      </trkpt>
      <trkpt lat="44.82872" lon="5.43677">
        <ele>1705.52</ele>
        <time>2020-12-23T09:30:58Z</time>
      </trkpt>
      <trkpt lat="44.82872" lon="5.43673">
        <ele>1706.48</ele>
        <time>2020-12-23T09:31:00Z</time>
      </trkpt>
      <trkpt lat="44.82872" lon="5.43667">
        <ele>1701.19</ele>
        <time>2020-12-23T09:31:03Z</time>
      </trkpt>
      <trkpt lat="44.82872" lon="5.43667">
        <ele>1701.19</ele>
        <time>2020-12-23T09:31:04Z</time>
      </trkpt>
      <trkpt lat="44.82871" lon="5.43662">
        <ele>1701.67</ele>
        <time>2020-12-23T09:31:07Z</time>
      </trkpt>
      <trkpt lat="44.8287" lon="5.43654">
        <ele>1700.71</ele>
        <time>2020-12-23T09:31:12Z</time>
      </trkpt>
      <trkpt lat="44.8287" lon="5.43651">
        <ele>1700.71</ele>
        <time>2020-12-23T09:31:14Z</time>
      </trkpt>
      <trkpt lat="44.82865" lon="5.43644">
        <ele>1701.19</ele>
        <time>2020-12-23T09:31:27Z</time>
      </trkpt>
      <trkpt lat="44.82865" lon="5.43644">
        <ele>1701.67</ele>
        <time>2020-12-23T09:31:56Z</time>
      </trkpt>
      <trkpt lat="44.82867" lon="5.43628">
        <ele>1700.23</ele>
        <time>2020-12-23T09:32:06Z</time>
      </trkpt>
      <trkpt lat="44.82866" lon="5.43607">
        <ele>1701.67</ele>
        <time>2020-12-23T09:32:18Z</time>
      </trkpt>
      <trkpt lat="44.82866" lon="5.43598">
        <ele>1698.79</ele>
        <time>2020-12-23T09:32:22Z</time>
      </trkpt>
      <trkpt lat="44.82867" lon="5.43592">
        <ele>1697.34</ele>
        <time>2020-12-23T09:32:25Z</time>
      </trkpt>
      <trkpt lat="44.82867" lon="5.43588">
        <ele>1694.94</ele>
        <time>2020-12-23T09:32:27Z</time>
      </trkpt>
      <trkpt lat="44.82869" lon="5.43582">
        <ele>1696.38</ele>
        <time>2020-12-23T09:32:30Z</time>
      </trkpt>
      <trkpt lat="44.82869" lon="5.43572">
        <ele>1691.58</ele>
        <time>2020-12-23T09:32:35Z</time>
      </trkpt>
      <trkpt lat="44.82869" lon="5.43559">
        <ele>1688.69</ele>
        <time>2020-12-23T09:32:42Z</time>
      </trkpt>
      <trkpt lat="44.82869" lon="5.43557">
        <ele>1688.21</ele>
        <time>2020-12-23T09:32:43Z</time>
      </trkpt>
      <trkpt lat="44.82869" lon="5.43555">
        <ele>1688.69</ele>
        <time>2020-12-23T09:32:44Z</time>
      </trkpt>
      <trkpt lat="44.8287" lon="5.43539">
        <ele>1685.33</ele>
        <time>2020-12-23T09:32:55Z</time>
      </trkpt>
      <trkpt lat="44.82871" lon="5.43531">
        <ele>1683.89</ele>
        <time>2020-12-23T09:32:59Z</time>
      </trkpt>
      <trkpt lat="44.82874" lon="5.43523">
        <ele>1681</ele>
        <time>2020-12-23T09:33:04Z</time>
      </trkpt>
      <trkpt lat="44.82874" lon="5.43522">
        <ele>1680.52</ele>
        <time>2020-12-23T09:33:05Z</time>
      </trkpt>
      <trkpt lat="44.82875" lon="5.43519">
        <ele>1678.6</ele>
        <time>2020-12-23T09:33:07Z</time>
      </trkpt>
      <trkpt lat="44.82876" lon="5.43515">
        <ele>1677.64</ele>
        <time>2020-12-23T09:33:10Z</time>
      </trkpt>
      <trkpt lat="44.82878" lon="5.43504">
        <ele>1676.2</ele>
        <time>2020-12-23T09:33:17Z</time>
      </trkpt>
      <trkpt lat="44.82881" lon="5.4349">
        <ele>1672.83</ele>
        <time>2020-12-23T09:33:26Z</time>
      </trkpt>
      <trkpt lat="44.82882" lon="5.43486">
        <ele>1672.35</ele>
        <time>2020-12-23T09:33:29Z</time>
      </trkpt>
      <trkpt lat="44.82879" lon="5.43481">
        <ele>1670.91</ele>
        <time>2020-12-23T09:33:32Z</time>
      </trkpt>
      <trkpt lat="44.82877" lon="5.43475">
        <ele>1670.43</ele>
        <time>2020-12-23T09:33:45Z</time>
      </trkpt>
      <trkpt lat="44.82877" lon="5.43475">
        <ele>1669.95</ele>
        <time>2020-12-23T09:34:13Z</time>
      </trkpt>
      <trkpt lat="44.82877" lon="5.43476">
        <ele>1670.43</ele>
        <time>2020-12-23T09:34:39Z</time>
      </trkpt>
      <trkpt lat="44.82881" lon="5.43466">
        <ele>1668.51</ele>
        <time>2020-12-23T09:34:45Z</time>
      </trkpt>
      <trkpt lat="44.82881" lon="5.43465">
        <ele>1667.54</ele>
        <time>2020-12-23T09:34:46Z</time>
      </trkpt>
      <trkpt lat="44.82876" lon="5.43443">
        <ele>1666.58</ele>
        <time>2020-12-23T09:34:55Z</time>
      </trkpt>
      <trkpt lat="44.82872" lon="5.43435">
        <ele>1666.1</ele>
        <time>2020-12-23T09:35:00Z</time>
      </trkpt>
      <trkpt lat="44.82871" lon="5.43415">
        <ele>1665.62</ele>
        <time>2020-12-23T09:35:12Z</time>
      </trkpt>
      <trkpt lat="44.82867" lon="5.43391">
        <ele>1664.18</ele>
        <time>2020-12-23T09:35:26Z</time>
      </trkpt>
      <trkpt lat="44.82864" lon="5.43384">
        <ele>1663.7</ele>
        <time>2020-12-23T09:35:32Z</time>
      </trkpt>
      <trkpt lat="44.82862" lon="5.43372">
        <ele>1662.74</ele>
        <time>2020-12-23T09:35:38Z</time>
      </trkpt>
      <trkpt lat="44.82858" lon="5.43353">
        <ele>1661.78</ele>
        <time>2020-12-23T09:35:47Z</time>
      </trkpt>
      <trkpt lat="44.82855" lon="5.43336">
        <ele>1660.33</ele>
        <time>2020-12-23T09:36:00Z</time>
      </trkpt>
      <trkpt lat="44.82851" lon="5.43318">
        <ele>1659.85</ele>
        <time>2020-12-23T09:36:11Z</time>
      </trkpt>
      <trkpt lat="44.82848" lon="5.43303">
        <ele>1657.45</ele>
        <time>2020-12-23T09:36:21Z</time>
      </trkpt>
      <trkpt lat="44.82843" lon="5.4329">
        <ele>1656.97</ele>
        <time>2020-12-23T09:36:29Z</time>
      </trkpt>
      <trkpt lat="44.82842" lon="5.43282">
        <ele>1657.45</ele>
        <time>2020-12-23T09:36:33Z</time>
      </trkpt>
      <trkpt lat="44.82839" lon="5.43271">
        <ele>1660.81</ele>
        <time>2020-12-23T09:36:40Z</time>
      </trkpt>
      <trkpt lat="44.82836" lon="5.43258">
        <ele>1657.45</ele>
        <time>2020-12-23T09:36:46Z</time>
      </trkpt>
      <trkpt lat="44.82833" lon="5.43245">
        <ele>1654.57</ele>
        <time>2020-12-23T09:36:55Z</time>
      </trkpt>
      <trkpt lat="44.8283" lon="5.43234">
        <ele>1652.16</ele>
        <time>2020-12-23T09:37:02Z</time>
      </trkpt>
      <trkpt lat="44.82828" lon="5.43229">
        <ele>1652.16</ele>
        <time>2020-12-23T09:37:06Z</time>
      </trkpt>
      <trkpt lat="44.82826" lon="5.4322">
        <ele>1651.2</ele>
        <time>2020-12-23T09:37:12Z</time>
      </trkpt>
      <trkpt lat="44.82822" lon="5.432">
        <ele>1650.24</ele>
        <time>2020-12-23T09:37:25Z</time>
      </trkpt>
      <trkpt lat="44.82822" lon="5.43197">
        <ele>1651.68</ele>
        <time>2020-12-23T09:37:27Z</time>
      </trkpt>
      <trkpt lat="44.82821" lon="5.43186">
        <ele>1648.32</ele>
        <time>2020-12-23T09:37:35Z</time>
      </trkpt>
      <trkpt lat="44.82821" lon="5.43186">
        <ele>1654.57</ele>
        <time>2020-12-23T09:37:40Z</time>
      </trkpt>
      <trkpt lat="44.82821" lon="5.43186">
        <ele>1652.64</ele>
        <time>2020-12-23T09:37:41Z</time>
      </trkpt>
      <trkpt lat="44.82821" lon="5.43186">
        <ele>1651.2</ele>
        <time>2020-12-23T09:37:56Z</time>
      </trkpt>
      <trkpt lat="44.82821" lon="5.43186">
        <ele>1653.12</ele>
        <time>2020-12-23T09:38:00Z</time>
      </trkpt>
      <trkpt lat="44.82821" lon="5.43186">
        <ele>1649.28</ele>
        <time>2020-12-23T09:38:02Z</time>
      </trkpt>
      <trkpt lat="44.82821" lon="5.43186">
        <ele>1653.12</ele>
        <time>2020-12-23T09:38:11Z</time>
      </trkpt>
      <trkpt lat="44.8282" lon="5.43187">
        <ele>1651.68</ele>
        <time>2020-12-23T09:38:18Z</time>
      </trkpt>
      <trkpt lat="44.8282" lon="5.43187">
        <ele>1652.64</ele>
        <time>2020-12-23T09:38:22Z</time>
      </trkpt>
      <trkpt lat="44.8282" lon="5.43187">
        <ele>1653.6</ele>
        <time>2020-12-23T09:38:35Z</time>
      </trkpt>
      <trkpt lat="44.8282" lon="5.43187">
        <ele>1649.76</ele>
        <time>2020-12-23T09:38:43Z</time>
      </trkpt>
      <trkpt lat="44.8282" lon="5.43187">
        <ele>1652.64</ele>
        <time>2020-12-23T09:38:46Z</time>
      </trkpt>
      <trkpt lat="44.8282" lon="5.43187">
        <ele>1649.76</ele>
        <time>2020-12-23T09:38:51Z</time>
      </trkpt>
      <trkpt lat="44.8282" lon="5.43186">
        <ele>1648.8</ele>
        <time>2020-12-23T09:38:53Z</time>
      </trkpt>
      <trkpt lat="44.8282" lon="5.43182">
        <ele>1652.16</ele>
        <time>2020-12-23T09:38:56Z</time>
      </trkpt>
      <trkpt lat="44.82819" lon="5.43177">
        <ele>1648.32</ele>
        <time>2020-12-23T09:38:59Z</time>
      </trkpt>
      <trkpt lat="44.82816" lon="5.4317">
        <ele>1648.8</ele>
        <time>2020-12-23T09:39:03Z</time>
      </trkpt>
      <trkpt lat="44.82816" lon="5.43166">
        <ele>1646.88</ele>
        <time>2020-12-23T09:39:06Z</time>
      </trkpt>
      <trkpt lat="44.82816" lon="5.43165">
        <ele>1650.72</ele>
        <time>2020-12-23T09:39:07Z</time>
      </trkpt>
      <trkpt lat="44.82816" lon="5.43162">
        <ele>1654.09</ele>
        <time>2020-12-23T09:39:09Z</time>
      </trkpt>
      <trkpt lat="44.82816" lon="5.4316">
        <ele>1653.6</ele>
        <time>2020-12-23T09:39:10Z</time>
      </trkpt>
      <trkpt lat="44.82817" lon="5.43157">
        <ele>1650.24</ele>
        <time>2020-12-23T09:39:11Z</time>
      </trkpt>
      <trkpt lat="44.82817" lon="5.43155">
        <ele>1652.64</ele>
        <time>2020-12-23T09:39:12Z</time>
      </trkpt>
      <trkpt lat="44.82817" lon="5.43154">
        <ele>1652.16</ele>
        <time>2020-12-23T09:39:13Z</time>
      </trkpt>
      <trkpt lat="44.82818" lon="5.43149">
        <ele>1646.88</ele>
        <time>2020-12-23T09:39:17Z</time>
      </trkpt>
      <trkpt lat="44.82819" lon="5.43143">
        <ele>1647.84</ele>
        <time>2020-12-23T09:39:21Z</time>
      </trkpt>
      <trkpt lat="44.82819" lon="5.43139">
        <ele>1646.4</ele>
        <time>2020-12-23T09:39:23Z</time>
      </trkpt>
      <trkpt lat="44.82818" lon="5.43134">
        <ele>1639.67</ele>
        <time>2020-12-23T09:39:26Z</time>
      </trkpt>
      <trkpt lat="44.82818" lon="5.43133">
        <ele>1639.67</ele>
        <time>2020-12-23T09:39:27Z</time>
      </trkpt>
      <trkpt lat="44.82819" lon="5.43131">
        <ele>1636.78</ele>
        <time>2020-12-23T09:39:29Z</time>
      </trkpt>
      <trkpt lat="44.8282" lon="5.43129">
        <ele>1633.42</ele>
        <time>2020-12-23T09:39:32Z</time>
      </trkpt>
      <trkpt lat="44.82821" lon="5.43128">
        <ele>1632.46</ele>
        <time>2020-12-23T09:39:33Z</time>
      </trkpt>
      <trkpt lat="44.82823" lon="5.43125">
        <ele>1629.09</ele>
        <time>2020-12-23T09:39:36Z</time>
      </trkpt>
      <trkpt lat="44.82824" lon="5.43122">
        <ele>1628.13</ele>
        <time>2020-12-23T09:39:38Z</time>
      </trkpt>
      <trkpt lat="44.82828" lon="5.43119">
        <ele>1629.57</ele>
        <time>2020-12-23T09:39:41Z</time>
      </trkpt>
      <trkpt lat="44.82831" lon="5.43111">
        <ele>1628.13</ele>
        <time>2020-12-23T09:39:48Z</time>
      </trkpt>
      <trkpt lat="44.82834" lon="5.43107">
        <ele>1629.09</ele>
        <time>2020-12-23T09:39:52Z</time>
      </trkpt>
      <trkpt lat="44.82836" lon="5.43101">
        <ele>1624.77</ele>
        <time>2020-12-23T09:39:56Z</time>
      </trkpt>
      <trkpt lat="44.82837" lon="5.43098">
        <ele>1622.84</ele>
        <time>2020-12-23T09:39:58Z</time>
      </trkpt>
      <trkpt lat="44.82838" lon="5.43095">
        <ele>1621.4</ele>
        <time>2020-12-23T09:40:00Z</time>
      </trkpt>
      <trkpt lat="44.82842" lon="5.43083">
        <ele>1618.04</ele>
        <time>2020-12-23T09:40:08Z</time>
      </trkpt>
      <trkpt lat="44.82843" lon="5.43081">
        <ele>1617.56</ele>
        <time>2020-12-23T09:40:09Z</time>
      </trkpt>
      <trkpt lat="44.82844" lon="5.43073">
        <ele>1615.15</ele>
        <time>2020-12-23T09:40:24Z</time>
      </trkpt>
      <trkpt lat="44.82844" lon="5.43073">
        <ele>1615.15</ele>
        <time>2020-12-23T09:40:49Z</time>
      </trkpt>
      <trkpt lat="44.82847" lon="5.4307">
        <ele>1614.19</ele>
        <time>2020-12-23T09:40:52Z</time>
      </trkpt>
      <trkpt lat="44.82852" lon="5.43061">
        <ele>1613.23</ele>
        <time>2020-12-23T09:41:04Z</time>
      </trkpt>
      <trkpt lat="44.82852" lon="5.43061">
        <ele>1613.23</ele>
        <time>2020-12-23T09:41:21Z</time>
      </trkpt>
      <trkpt lat="44.82854" lon="5.43058">
        <ele>1612.27</ele>
        <time>2020-12-23T09:41:24Z</time>
      </trkpt>
      <trkpt lat="44.82855" lon="5.43051">
        <ele>1611.79</ele>
        <time>2020-12-23T09:41:28Z</time>
      </trkpt>
      <trkpt lat="44.82861" lon="5.43044">
        <ele>1608.9</ele>
        <time>2020-12-23T09:41:36Z</time>
      </trkpt>
      <trkpt lat="44.82863" lon="5.43035">
        <ele>1607.94</ele>
        <time>2020-12-23T09:41:42Z</time>
      </trkpt>
      <trkpt lat="44.82864" lon="5.43029">
        <ele>1607.46</ele>
        <time>2020-12-23T09:41:45Z</time>
      </trkpt>
      <trkpt lat="44.8286" lon="5.43023">
        <ele>1604.1</ele>
        <time>2020-12-23T09:41:51Z</time>
      </trkpt>
      <trkpt lat="44.82858" lon="5.43022">
        <ele>1603.62</ele>
        <time>2020-12-23T09:41:53Z</time>
      </trkpt>
      <trkpt lat="44.82849" lon="5.43005">
        <ele>1601.21</ele>
        <time>2020-12-23T09:42:03Z</time>
      </trkpt>
      <trkpt lat="44.82848" lon="5.43002">
        <ele>1600.73</ele>
        <time>2020-12-23T09:42:05Z</time>
      </trkpt>
      <trkpt lat="44.82844" lon="5.42996">
        <ele>1599.29</ele>
        <time>2020-12-23T09:42:10Z</time>
      </trkpt>
      <trkpt lat="44.82844" lon="5.42988">
        <ele>1598.81</ele>
        <time>2020-12-23T09:42:14Z</time>
      </trkpt>
      <trkpt lat="44.82841" lon="5.42981">
        <ele>1597.37</ele>
        <time>2020-12-23T09:42:17Z</time>
      </trkpt>
      <trkpt lat="44.82838" lon="5.42974">
        <ele>1597.37</ele>
        <time>2020-12-23T09:42:20Z</time>
      </trkpt>
      <trkpt lat="44.82827" lon="5.42954">
        <ele>1597.85</ele>
        <time>2020-12-23T09:42:34Z</time>
      </trkpt>
      <trkpt lat="44.82825" lon="5.42949">
        <ele>1596.89</ele>
        <time>2020-12-23T09:42:36Z</time>
      </trkpt>
      <trkpt lat="44.82821" lon="5.4294">
        <ele>1595.93</ele>
        <time>2020-12-23T09:42:45Z</time>
      </trkpt>
      <trkpt lat="44.82818" lon="5.42933">
        <ele>1595.45</ele>
        <time>2020-12-23T09:42:57Z</time>
      </trkpt>
      <trkpt lat="44.82815" lon="5.42925">
        <ele>1596.89</ele>
        <time>2020-12-23T09:43:03Z</time>
      </trkpt>
      <trkpt lat="44.82812" lon="5.42911">
        <ele>1597.85</ele>
        <time>2020-12-23T09:43:09Z</time>
      </trkpt>
      <trkpt lat="44.8281" lon="5.42888">
        <ele>1595.45</ele>
        <time>2020-12-23T09:43:21Z</time>
      </trkpt>
      <trkpt lat="44.82805" lon="5.4287">
        <ele>1594</ele>
        <time>2020-12-23T09:43:29Z</time>
      </trkpt>
      <trkpt lat="44.828" lon="5.42843">
        <ele>1593.04</ele>
        <time>2020-12-23T09:43:43Z</time>
      </trkpt>
      <trkpt lat="44.828" lon="5.42838">
        <ele>1593.52</ele>
        <time>2020-12-23T09:43:47Z</time>
      </trkpt>
      <trkpt lat="44.82807" lon="5.42819">
        <ele>1593.04</ele>
        <time>2020-12-23T09:44:00Z</time>
      </trkpt>
      <trkpt lat="44.8281" lon="5.4281">
        <ele>1593.04</ele>
        <time>2020-12-23T09:44:06Z</time>
      </trkpt>
      <trkpt lat="44.82812" lon="5.42803">
        <ele>1593.04</ele>
        <time>2020-12-23T09:44:10Z</time>
      </trkpt>
      <trkpt lat="44.82814" lon="5.42797">
        <ele>1593.04</ele>
        <time>2020-12-23T09:44:14Z</time>
      </trkpt>
      <trkpt lat="44.82821" lon="5.42785">
        <ele>1594</ele>
        <time>2020-12-23T09:44:24Z</time>
      </trkpt>
      <trkpt lat="44.82823" lon="5.42782">
        <ele>1594.48</ele>
        <time>2020-12-23T09:44:26Z</time>
      </trkpt>
      <trkpt lat="44.82826" lon="5.42777">
        <ele>1595.93</ele>
        <time>2020-12-23T09:44:30Z</time>
      </trkpt>
      <trkpt lat="44.82829" lon="5.42771">
        <ele>1595.93</ele>
        <time>2020-12-23T09:44:36Z</time>
      </trkpt>
      <trkpt lat="44.82835" lon="5.42761">
        <ele>1596.89</ele>
        <time>2020-12-23T09:44:43Z</time>
      </trkpt>
      <trkpt lat="44.82841" lon="5.42753">
        <ele>1595.93</ele>
        <time>2020-12-23T09:44:52Z</time>
      </trkpt>
      <trkpt lat="44.82843" lon="5.42751">
        <ele>1595.93</ele>
        <time>2020-12-23T09:44:54Z</time>
      </trkpt>
      <trkpt lat="44.82847" lon="5.42746">
        <ele>1596.89</ele>
        <time>2020-12-23T09:44:59Z</time>
      </trkpt>
      <trkpt lat="44.82849" lon="5.42745">
        <ele>1596.41</ele>
        <time>2020-12-23T09:45:01Z</time>
      </trkpt>
      <trkpt lat="44.82851" lon="5.42743">
        <ele>1596.89</ele>
        <time>2020-12-23T09:45:05Z</time>
      </trkpt>
      <trkpt lat="44.82857" lon="5.42741">
        <ele>1598.33</ele>
        <time>2020-12-23T09:45:14Z</time>
      </trkpt>
      <trkpt lat="44.82862" lon="5.42734">
        <ele>1599.77</ele>
        <time>2020-12-23T09:45:20Z</time>
      </trkpt>
      <trkpt lat="44.82865" lon="5.42727">
        <ele>1600.25</ele>
        <time>2020-12-23T09:45:26Z</time>
      </trkpt>
      <trkpt lat="44.82872" lon="5.4271">
        <ele>1600.25</ele>
        <time>2020-12-23T09:45:38Z</time>
      </trkpt>
      <trkpt lat="44.82871" lon="5.42705">
        <ele>1600.25</ele>
        <time>2020-12-23T09:45:43Z</time>
      </trkpt>
      <trkpt lat="44.82871" lon="5.42699">
        <ele>1600.25</ele>
        <time>2020-12-23T09:45:48Z</time>
      </trkpt>
      <trkpt lat="44.82871" lon="5.42684">
        <ele>1600.73</ele>
        <time>2020-12-23T09:45:57Z</time>
      </trkpt>
      <trkpt lat="44.82869" lon="5.42676">
        <ele>1601.21</ele>
        <time>2020-12-23T09:46:01Z</time>
      </trkpt>
      <trkpt lat="44.82869" lon="5.4266">
        <ele>1601.21</ele>
        <time>2020-12-23T09:46:09Z</time>
      </trkpt>
      <trkpt lat="44.8287" lon="5.4265">
        <ele>1600.73</ele>
        <time>2020-12-23T09:46:14Z</time>
      </trkpt>
      <trkpt lat="44.82871" lon="5.4264">
        <ele>1599.77</ele>
        <time>2020-12-23T09:46:21Z</time>
      </trkpt>
      <trkpt lat="44.82872" lon="5.42628">
        <ele>1599.29</ele>
        <time>2020-12-23T09:46:29Z</time>
      </trkpt>
      <trkpt lat="44.82874" lon="5.42613">
        <ele>1598.81</ele>
        <time>2020-12-23T09:46:38Z</time>
      </trkpt>
      <trkpt lat="44.82875" lon="5.42605">
        <ele>1598.33</ele>
        <time>2020-12-23T09:46:44Z</time>
      </trkpt>
      <trkpt lat="44.82877" lon="5.42601">
        <ele>1597.85</ele>
        <time>2020-12-23T09:46:48Z</time>
      </trkpt>
      <trkpt lat="44.82887" lon="5.426">
        <ele>1595.93</ele>
        <time>2020-12-23T09:46:57Z</time>
      </trkpt>
      <trkpt lat="44.82896" lon="5.426">
        <ele>1594</ele>
        <time>2020-12-23T09:47:07Z</time>
      </trkpt>
      <trkpt lat="44.82912" lon="5.426">
        <ele>1591.6</ele>
        <time>2020-12-23T09:47:21Z</time>
      </trkpt>
      <trkpt lat="44.82913" lon="5.426">
        <ele>1591.6</ele>
        <time>2020-12-23T09:47:22Z</time>
      </trkpt>
      <trkpt lat="44.82919" lon="5.426">
        <ele>1591.12</ele>
        <time>2020-12-23T09:47:27Z</time>
      </trkpt>
      <trkpt lat="44.82925" lon="5.42599">
        <ele>1590.64</ele>
        <time>2020-12-23T09:47:32Z</time>
      </trkpt>
      <trkpt lat="44.82929" lon="5.42599">
        <ele>1589.68</ele>
        <time>2020-12-23T09:47:36Z</time>
      </trkpt>
      <trkpt lat="44.82943" lon="5.426">
        <ele>1586.31</ele>
        <time>2020-12-23T09:47:48Z</time>
      </trkpt>
      <trkpt lat="44.82956" lon="5.42602">
        <ele>1582.47</ele>
        <time>2020-12-23T09:47:58Z</time>
      </trkpt>
      <trkpt lat="44.82971" lon="5.42605">
        <ele>1582.95</ele>
        <time>2020-12-23T09:48:10Z</time>
      </trkpt>
      <trkpt lat="44.82975" lon="5.42604">
        <ele>1581.99</ele>
        <time>2020-12-23T09:48:14Z</time>
      </trkpt>
      <trkpt lat="44.82993" lon="5.42603">
        <ele>1580.06</ele>
        <time>2020-12-23T09:48:27Z</time>
      </trkpt>
      <trkpt lat="44.83" lon="5.42606">
        <ele>1575.74</ele>
        <time>2020-12-23T09:48:34Z</time>
      </trkpt>
      <trkpt lat="44.83009" lon="5.42608">
        <ele>1575.74</ele>
        <time>2020-12-23T09:48:42Z</time>
      </trkpt>
      <trkpt lat="44.83023" lon="5.42609">
        <ele>1574.3</ele>
        <time>2020-12-23T09:48:53Z</time>
      </trkpt>
      <trkpt lat="44.83038" lon="5.42613">
        <ele>1570.93</ele>
        <time>2020-12-23T09:49:05Z</time>
      </trkpt>
      <trkpt lat="44.8304" lon="5.42613">
        <ele>1570.45</ele>
        <time>2020-12-23T09:49:09Z</time>
      </trkpt>
      <trkpt lat="44.83052" lon="5.42615">
        <ele>1569.01</ele>
        <time>2020-12-23T09:49:19Z</time>
      </trkpt>
      <trkpt lat="44.8306" lon="5.42614">
        <ele>1569.97</ele>
        <time>2020-12-23T09:49:26Z</time>
      </trkpt>
      <trkpt lat="44.83066" lon="5.42605">
        <ele>1569.97</ele>
        <time>2020-12-23T09:49:32Z</time>
      </trkpt>
      <trkpt lat="44.83079" lon="5.42597">
        <ele>1567.09</ele>
        <time>2020-12-23T09:49:43Z</time>
      </trkpt>
      <trkpt lat="44.83082" lon="5.42595">
        <ele>1566.61</ele>
        <time>2020-12-23T09:49:45Z</time>
      </trkpt>
      <trkpt lat="44.83096" lon="5.42586">
        <ele>1563.72</ele>
        <time>2020-12-23T09:49:57Z</time>
      </trkpt>
      <trkpt lat="44.83109" lon="5.4258">
        <ele>1560.36</ele>
        <time>2020-12-23T09:50:09Z</time>
      </trkpt>
      <trkpt lat="44.83122" lon="5.42575">
        <ele>1558.43</ele>
        <time>2020-12-23T09:50:19Z</time>
      </trkpt>
      <trkpt lat="44.83133" lon="5.42567">
        <ele>1556.51</ele>
        <time>2020-12-23T09:50:30Z</time>
      </trkpt>
      <trkpt lat="44.83146" lon="5.42563">
        <ele>1554.59</ele>
        <time>2020-12-23T09:50:40Z</time>
      </trkpt>
      <trkpt lat="44.83157" lon="5.42562">
        <ele>1550.74</ele>
        <time>2020-12-23T09:50:49Z</time>
      </trkpt>
      <trkpt lat="44.83158" lon="5.42561">
        <ele>1550.74</ele>
        <time>2020-12-23T09:50:50Z</time>
      </trkpt>
      <trkpt lat="44.83171" lon="5.42555">
        <ele>1550.26</ele>
        <time>2020-12-23T09:51:03Z</time>
      </trkpt>
      <trkpt lat="44.83177" lon="5.42555">
        <ele>1548.34</ele>
        <time>2020-12-23T09:51:09Z</time>
      </trkpt>
      <trkpt lat="44.8318" lon="5.42553">
        <ele>1548.82</ele>
        <time>2020-12-23T09:51:12Z</time>
      </trkpt>
      <trkpt lat="44.83193" lon="5.42547">
        <ele>1545.94</ele>
        <time>2020-12-23T09:51:23Z</time>
      </trkpt>
      <trkpt lat="44.83203" lon="5.42542">
        <ele>1543.05</ele>
        <time>2020-12-23T09:51:31Z</time>
      </trkpt>
      <trkpt lat="44.83209" lon="5.42541">
        <ele>1543.53</ele>
        <time>2020-12-23T09:51:36Z</time>
      </trkpt>
      <trkpt lat="44.83223" lon="5.42535">
        <ele>1542.09</ele>
        <time>2020-12-23T09:51:48Z</time>
      </trkpt>
      <trkpt lat="44.83234" lon="5.42529">
        <ele>1539.69</ele>
        <time>2020-12-23T09:51:57Z</time>
      </trkpt>
      <trkpt lat="44.83241" lon="5.42526">
        <ele>1537.77</ele>
        <time>2020-12-23T09:52:04Z</time>
      </trkpt>
      <trkpt lat="44.8325" lon="5.42521">
        <ele>1536.32</ele>
        <time>2020-12-23T09:52:12Z</time>
      </trkpt>
      <trkpt lat="44.83253" lon="5.4252">
        <ele>1534.88</ele>
        <time>2020-12-23T09:52:15Z</time>
      </trkpt>
      <trkpt lat="44.83271" lon="5.4252">
        <ele>1532.96</ele>
        <time>2020-12-23T09:52:29Z</time>
      </trkpt>
      <trkpt lat="44.83276" lon="5.42519">
        <ele>1532</ele>
        <time>2020-12-23T09:52:33Z</time>
      </trkpt>
      <trkpt lat="44.83281" lon="5.42519">
        <ele>1530.08</ele>
        <time>2020-12-23T09:52:39Z</time>
      </trkpt>
      <trkpt lat="44.83293" lon="5.42521">
        <ele>1528.63</ele>
        <time>2020-12-23T09:52:48Z</time>
      </trkpt>
      <trkpt lat="44.83307" lon="5.42524">
        <ele>1525.27</ele>
        <time>2020-12-23T09:53:00Z</time>
      </trkpt>
      <trkpt lat="44.83316" lon="5.42522">
        <ele>1524.31</ele>
        <time>2020-12-23T09:53:07Z</time>
      </trkpt>
      <trkpt lat="44.83321" lon="5.42522">
        <ele>1524.79</ele>
        <time>2020-12-23T09:53:11Z</time>
      </trkpt>
      <trkpt lat="44.83332" lon="5.42519">
        <ele>1522.87</ele>
        <time>2020-12-23T09:53:20Z</time>
      </trkpt>
      <trkpt lat="44.83338" lon="5.42518">
        <ele>1521.42</ele>
        <time>2020-12-23T09:53:24Z</time>
      </trkpt>
      <trkpt lat="44.83349" lon="5.42515">
        <ele>1519.98</ele>
        <time>2020-12-23T09:53:34Z</time>
      </trkpt>
      <trkpt lat="44.83365" lon="5.42504">
        <ele>1519.02</ele>
        <time>2020-12-23T09:53:48Z</time>
      </trkpt>
      <trkpt lat="44.8338" lon="5.42499">
        <ele>1515.66</ele>
        <time>2020-12-23T09:54:00Z</time>
      </trkpt>
      <trkpt lat="44.83382" lon="5.42499">
        <ele>1515.66</ele>
        <time>2020-12-23T09:54:03Z</time>
      </trkpt>
      <trkpt lat="44.83398" lon="5.42492">
        <ele>1513.25</ele>
        <time>2020-12-23T09:54:16Z</time>
      </trkpt>
      <trkpt lat="44.83413" lon="5.42488">
        <ele>1511.33</ele>
        <time>2020-12-23T09:54:28Z</time>
      </trkpt>
      <trkpt lat="44.83421" lon="5.42485">
        <ele>1508.93</ele>
        <time>2020-12-23T09:54:37Z</time>
      </trkpt>
      <trkpt lat="44.83438" lon="5.42483">
        <ele>1507.97</ele>
        <time>2020-12-23T09:54:50Z</time>
      </trkpt>
      <trkpt lat="44.83444" lon="5.42483">
        <ele>1507.48</ele>
        <time>2020-12-23T09:54:54Z</time>
      </trkpt>
      <trkpt lat="44.83452" lon="5.4248">
        <ele>1506.04</ele>
        <time>2020-12-23T09:55:00Z</time>
      </trkpt>
      <trkpt lat="44.83457" lon="5.4248">
        <ele>1504.6</ele>
        <time>2020-12-23T09:55:04Z</time>
      </trkpt>
      <trkpt lat="44.8347" lon="5.42483">
        <ele>1502.2</ele>
        <time>2020-12-23T09:55:15Z</time>
      </trkpt>
      <trkpt lat="44.83476" lon="5.42483">
        <ele>1501.24</ele>
        <time>2020-12-23T09:55:19Z</time>
      </trkpt>
      <trkpt lat="44.83484" lon="5.42484">
        <ele>1500.27</ele>
        <time>2020-12-23T09:55:27Z</time>
      </trkpt>
      <trkpt lat="44.83501" lon="5.42482">
        <ele>1497.87</ele>
        <time>2020-12-23T09:55:39Z</time>
      </trkpt>
      <trkpt lat="44.83515" lon="5.4248">
        <ele>1495.95</ele>
        <time>2020-12-23T09:55:50Z</time>
      </trkpt>
      <trkpt lat="44.83522" lon="5.42479">
        <ele>1494.99</ele>
        <time>2020-12-23T09:55:55Z</time>
      </trkpt>
      <trkpt lat="44.83539" lon="5.42477">
        <ele>1492.58</ele>
        <time>2020-12-23T09:56:08Z</time>
      </trkpt>
      <trkpt lat="44.83547" lon="5.42475">
        <ele>1491.62</ele>
        <time>2020-12-23T09:56:15Z</time>
      </trkpt>
      <trkpt lat="44.83559" lon="5.42474">
        <ele>1490.18</ele>
        <time>2020-12-23T09:56:23Z</time>
      </trkpt>
      <trkpt lat="44.83572" lon="5.4247">
        <ele>1488.26</ele>
        <time>2020-12-23T09:56:34Z</time>
      </trkpt>
      <trkpt lat="44.83577" lon="5.42467">
        <ele>1486.34</ele>
        <time>2020-12-23T09:56:40Z</time>
      </trkpt>
      <trkpt lat="44.8359" lon="5.42459">
        <ele>1483.45</ele>
        <time>2020-12-23T09:56:54Z</time>
      </trkpt>
      <trkpt lat="44.83596" lon="5.42458">
        <ele>1482.97</ele>
        <time>2020-12-23T09:56:58Z</time>
      </trkpt>
      <trkpt lat="44.83598" lon="5.42459">
        <ele>1481.53</ele>
        <time>2020-12-23T09:57:00Z</time>
      </trkpt>
      <trkpt lat="44.83615" lon="5.42462">
        <ele>1481.05</ele>
        <time>2020-12-23T09:57:13Z</time>
      </trkpt>
      <trkpt lat="44.83632" lon="5.42467">
        <ele>1479.13</ele>
        <time>2020-12-23T09:57:26Z</time>
      </trkpt>
      <trkpt lat="44.83633" lon="5.42467">
        <ele>1478.65</ele>
        <time>2020-12-23T09:57:27Z</time>
      </trkpt>
      <trkpt lat="44.83639" lon="5.42465">
        <ele>1478.16</ele>
        <time>2020-12-23T09:57:31Z</time>
      </trkpt>
      <trkpt lat="44.83647" lon="5.42463">
        <ele>1476.72</ele>
        <time>2020-12-23T09:57:37Z</time>
      </trkpt>
      <trkpt lat="44.83659" lon="5.42455">
        <ele>1475.28</ele>
        <time>2020-12-23T09:57:49Z</time>
      </trkpt>
      <trkpt lat="44.83668" lon="5.42459">
        <ele>1471.92</ele>
        <time>2020-12-23T09:57:58Z</time>
      </trkpt>
      <trkpt lat="44.83677" lon="5.42468">
        <ele>1471.44</ele>
        <time>2020-12-23T09:58:08Z</time>
      </trkpt>
      <trkpt lat="44.83691" lon="5.42476">
        <ele>1470.95</ele>
        <time>2020-12-23T09:58:20Z</time>
      </trkpt>
      <trkpt lat="44.83701" lon="5.42474">
        <ele>1468.55</ele>
        <time>2020-12-23T09:58:27Z</time>
      </trkpt>
      <trkpt lat="44.83704" lon="5.42473">
        <ele>1467.59</ele>
        <time>2020-12-23T09:58:31Z</time>
      </trkpt>
      <trkpt lat="44.83715" lon="5.42472">
        <ele>1466.63</ele>
        <time>2020-12-23T09:58:38Z</time>
      </trkpt>
      <trkpt lat="44.83721" lon="5.42472">
        <ele>1466.15</ele>
        <time>2020-12-23T09:58:43Z</time>
      </trkpt>
      <trkpt lat="44.83729" lon="5.42467">
        <ele>1465.19</ele>
        <time>2020-12-23T09:58:49Z</time>
      </trkpt>
      <trkpt lat="44.83743" lon="5.42462">
        <ele>1463.74</ele>
        <time>2020-12-23T09:59:01Z</time>
      </trkpt>
      <trkpt lat="44.83748" lon="5.42462">
        <ele>1463.74</ele>
        <time>2020-12-23T09:59:06Z</time>
      </trkpt>
      <trkpt lat="44.83767" lon="5.42456">
        <ele>1463.26</ele>
        <time>2020-12-23T09:59:19Z</time>
      </trkpt>
      <trkpt lat="44.83772" lon="5.42454">
        <ele>1462.78</ele>
        <time>2020-12-23T09:59:24Z</time>
      </trkpt>
      <trkpt lat="44.83786" lon="5.42447">
        <ele>1461.82</ele>
        <time>2020-12-23T09:59:33Z</time>
      </trkpt>
      <trkpt lat="44.83802" lon="5.42443">
        <ele>1458.94</ele>
        <time>2020-12-23T09:59:46Z</time>
      </trkpt>
      <trkpt lat="44.8382" lon="5.42438">
        <ele>1458.94</ele>
        <time>2020-12-23T09:59:59Z</time>
      </trkpt>
      <trkpt lat="44.83832" lon="5.42431">
        <ele>1457.98</ele>
        <time>2020-12-23T10:00:10Z</time>
      </trkpt>
      <trkpt lat="44.83849" lon="5.42421">
        <ele>1456.05</ele>
        <time>2020-12-23T10:00:22Z</time>
      </trkpt>
      <trkpt lat="44.83857" lon="5.42415">
        <ele>1454.13</ele>
        <time>2020-12-23T10:00:30Z</time>
      </trkpt>
      <trkpt lat="44.83863" lon="5.4241">
        <ele>1452.69</ele>
        <time>2020-12-23T10:00:34Z</time>
      </trkpt>
      <trkpt lat="44.83875" lon="5.42403">
        <ele>1451.25</ele>
        <time>2020-12-23T10:00:41Z</time>
      </trkpt>
      <trkpt lat="44.83894" lon="5.42396">
        <ele>1448.84</ele>
        <time>2020-12-23T10:00:57Z</time>
      </trkpt>
      <trkpt lat="44.83905" lon="5.42392">
        <ele>1447.4</ele>
        <time>2020-12-23T10:01:07Z</time>
      </trkpt>
      <trkpt lat="44.83924" lon="5.42378">
        <ele>1445</ele>
        <time>2020-12-23T10:01:19Z</time>
      </trkpt>
      <trkpt lat="44.83928" lon="5.42376">
        <ele>1444.52</ele>
        <time>2020-12-23T10:01:21Z</time>
      </trkpt>
      <trkpt lat="44.83944" lon="5.42369">
        <ele>1442.6</ele>
        <time>2020-12-23T10:01:35Z</time>
      </trkpt>
      <trkpt lat="44.83959" lon="5.42353">
        <ele>1439.71</ele>
        <time>2020-12-23T10:01:46Z</time>
      </trkpt>
      <trkpt lat="44.8397" lon="5.42342">
        <ele>1436.83</ele>
        <time>2020-12-23T10:01:58Z</time>
      </trkpt>
      <trkpt lat="44.83977" lon="5.42336">
        <ele>1435.39</ele>
        <time>2020-12-23T10:02:07Z</time>
      </trkpt>
      <trkpt lat="44.83989" lon="5.42328">
        <ele>1433.46</ele>
        <time>2020-12-23T10:02:19Z</time>
      </trkpt>
      <trkpt lat="44.8399" lon="5.42324">
        <ele>1433.46</ele>
        <time>2020-12-23T10:02:36Z</time>
      </trkpt>
      <trkpt lat="44.83994" lon="5.42316">
        <ele>1432.5</ele>
        <time>2020-12-23T10:02:40Z</time>
      </trkpt>
      <trkpt lat="44.84006" lon="5.42308">
        <ele>1432.02</ele>
        <time>2020-12-23T10:02:49Z</time>
      </trkpt>
      <trkpt lat="44.84019" lon="5.42289">
        <ele>1430.58</ele>
        <time>2020-12-23T10:03:01Z</time>
      </trkpt>
      <trkpt lat="44.84024" lon="5.42286">
        <ele>1428.66</ele>
        <time>2020-12-23T10:03:07Z</time>
      </trkpt>
      <trkpt lat="44.84041" lon="5.42275">
        <ele>1426.25</ele>
        <time>2020-12-23T10:03:19Z</time>
      </trkpt>
      <trkpt lat="44.84056" lon="5.42264">
        <ele>1424.33</ele>
        <time>2020-12-23T10:03:30Z</time>
      </trkpt>
      <trkpt lat="44.84064" lon="5.42262">
        <ele>1423.37</ele>
        <time>2020-12-23T10:03:38Z</time>
      </trkpt>
      <trkpt lat="44.84082" lon="5.42251">
        <ele>1420.49</ele>
        <time>2020-12-23T10:03:50Z</time>
      </trkpt>
      <trkpt lat="44.84092" lon="5.42244">
        <ele>1419.04</ele>
        <time>2020-12-23T10:04:00Z</time>
      </trkpt>
      <trkpt lat="44.84109" lon="5.42233">
        <ele>1417.12</ele>
        <time>2020-12-23T10:04:12Z</time>
      </trkpt>
      <trkpt lat="44.8412" lon="5.42227">
        <ele>1413.76</ele>
        <time>2020-12-23T10:04:22Z</time>
      </trkpt>
      <trkpt lat="44.84134" lon="5.42218">
        <ele>1410.87</ele>
        <time>2020-12-23T10:04:33Z</time>
      </trkpt>
      <trkpt lat="44.84145" lon="5.42213">
        <ele>1409.43</ele>
        <time>2020-12-23T10:04:44Z</time>
      </trkpt>
      <trkpt lat="44.84148" lon="5.42212">
        <ele>1408.47</ele>
        <time>2020-12-23T10:04:46Z</time>
      </trkpt>
      <trkpt lat="44.84159" lon="5.42203">
        <ele>1406.07</ele>
        <time>2020-12-23T10:04:56Z</time>
      </trkpt>
      <trkpt lat="44.84173" lon="5.42193">
        <ele>1402.22</ele>
        <time>2020-12-23T10:05:07Z</time>
      </trkpt>
      <trkpt lat="44.84184" lon="5.42187">
        <ele>1400.3</ele>
        <time>2020-12-23T10:05:18Z</time>
      </trkpt>
      <trkpt lat="44.84184" lon="5.42187">
        <ele>1399.82</ele>
        <time>2020-12-23T10:05:19Z</time>
      </trkpt>
      <trkpt lat="44.84189" lon="5.42186">
        <ele>1398.37</ele>
        <time>2020-12-23T10:05:23Z</time>
      </trkpt>
      <trkpt lat="44.84201" lon="5.42198">
        <ele>1397.41</ele>
        <time>2020-12-23T10:05:34Z</time>
      </trkpt>
      <trkpt lat="44.84212" lon="5.42201">
        <ele>1397.89</ele>
        <time>2020-12-23T10:05:47Z</time>
      </trkpt>
      <trkpt lat="44.84211" lon="5.42199">
        <ele>1397.89</ele>
        <time>2020-12-23T10:06:06Z</time>
      </trkpt>
      <trkpt lat="44.84206" lon="5.4221">
        <ele>1397.41</ele>
        <time>2020-12-23T10:06:28Z</time>
      </trkpt>
      <trkpt lat="44.84201" lon="5.4222">
        <ele>1396.93</ele>
        <time>2020-12-23T10:06:46Z</time>
      </trkpt>
      <trkpt lat="44.84201" lon="5.4222">
        <ele>1397.41</ele>
        <time>2020-12-23T10:06:50Z</time>
      </trkpt>
      <trkpt lat="44.842" lon="5.42221">
        <ele>1395.01</ele>
        <time>2020-12-23T10:07:03Z</time>
      </trkpt>
      <trkpt lat="44.84197" lon="5.42222">
        <ele>1395.97</ele>
        <time>2020-12-23T10:07:09Z</time>
      </trkpt>
      <trkpt lat="44.8419" lon="5.42224">
        <ele>1396.93</ele>
        <time>2020-12-23T10:07:14Z</time>
      </trkpt>
      <trkpt lat="44.84194" lon="5.42223">
        <ele>1397.41</ele>
        <time>2020-12-23T10:07:33Z</time>
      </trkpt>
      <trkpt lat="44.8419" lon="5.42233">
        <ele>1397.89</ele>
        <time>2020-12-23T10:07:48Z</time>
      </trkpt>
    </trkseg>
  </trk>
</gpx>